<?xml version="1.0" encoding="UTF-8" standalone="no" ?>
<gpx xmlns="http://www.topografix.com/GPX/1/1" xmlns:xsi="http://www.w3.org/2001/XMLSchema-instance" xsi:schemaLocation="http://www.topografix.com/GPX/1/1 http://www.topografix.com/GPX/1/1/gpx.xsd" version="1.1" creator="VisuGPX - https://www.visugpx.com">
  <metadata>
    <name>20150731 - Capanelle Vizzavona</name>
    <desc><![CDATA[Capanelle / Vizzavona

GR20 et variantes

GR20SUD201507]]></desc>
  </metadata>
  <trk>
    <name><![CDATA[2015-07-31 07:53]]></name>
    <desc><![CDATA[<h1>OruxMaps</h1><br /><hr align="center" width="480" style="height: 2px; width: 517px"/><h2>Nom: 2015-07-31 07:53</h2><br /><p>Temps de départ: 07/31/2015 07:53</p><p>Temps d'arrivée: 07/31/2015 14:17</p><p>Distance: 13,1km (06:24)</p><p>Temps déplacement: 03:34</p><p>Vitesse moyenne: 2km/h</p><p>Vitesse moyenne: 3,7km/h</p><p>Vitess Max.: 8,4km/h</p><p>Altitude minimale: 1135m</p><p>Altitude maximale: 1644m</p><p>Vitesse d'élévation: 198,9m/h</p><p>Vitesse de descente: -435m/h</p><p>Gain Altitude: 701m</p><p>Perte Altitude: -1126m</p><p>Temps d'élévation: 03:31</p><p>Temps de descente: 02:35</p><hr align="center" width="480" style="height: 2px; width: 517px"/>]]></desc>
    <trkseg>
      <trkpt lat="42.07732" lon="9.15033">
        <ele>1573.47</ele>
        <time>2015-07-31T05:53:26Z</time>
      </trkpt>
      <trkpt lat="42.07716" lon="9.15021">
        <ele>1609.93</ele>
        <time>2015-07-31T05:53:55Z</time>
      </trkpt>
      <trkpt lat="42.07733" lon="9.15012">
        <ele>1597.54</ele>
        <time>2015-07-31T06:00:37Z</time>
      </trkpt>
      <trkpt lat="42.0775" lon="9.15003">
        <ele>1604.7</ele>
        <time>2015-07-31T06:01:14Z</time>
      </trkpt>
      <trkpt lat="42.0776" lon="9.14983">
        <ele>1607.96</ele>
        <time>2015-07-31T06:01:42Z</time>
      </trkpt>
      <trkpt lat="42.07774" lon="9.14966">
        <ele>1608.44</ele>
        <time>2015-07-31T06:02:01Z</time>
      </trkpt>
      <trkpt lat="42.07787" lon="9.14983">
        <ele>1621.75</ele>
        <time>2015-07-31T06:03:04Z</time>
      </trkpt>
      <trkpt lat="42.07788" lon="9.15007">
        <ele>1622.14</ele>
        <time>2015-07-31T06:03:23Z</time>
      </trkpt>
      <trkpt lat="42.07783" lon="9.15031">
        <ele>1616.73</ele>
        <time>2015-07-31T06:03:51Z</time>
      </trkpt>
      <trkpt lat="42.0778" lon="9.15056">
        <ele>1608.48</ele>
        <time>2015-07-31T06:04:18Z</time>
      </trkpt>
      <trkpt lat="42.07781" lon="9.15081">
        <ele>1610.13</ele>
        <time>2015-07-31T06:04:59Z</time>
      </trkpt>
      <trkpt lat="42.07789" lon="9.15103">
        <ele>1603.19</ele>
        <time>2015-07-31T06:05:36Z</time>
      </trkpt>
      <trkpt lat="42.07798" lon="9.15125">
        <ele>1602.34</ele>
        <time>2015-07-31T06:06:18Z</time>
      </trkpt>
      <trkpt lat="42.07806" lon="9.15147">
        <ele>1607.5</ele>
        <time>2015-07-31T06:07:19Z</time>
      </trkpt>
      <trkpt lat="42.07821" lon="9.15161">
        <ele>1609.44</ele>
        <time>2015-07-31T06:08:06Z</time>
      </trkpt>
      <trkpt lat="42.07833" lon="9.15179">
        <ele>1605.47</ele>
        <time>2015-07-31T06:08:27Z</time>
      </trkpt>
      <trkpt lat="42.07845" lon="9.15199">
        <ele>1609.5</ele>
        <time>2015-07-31T06:08:51Z</time>
      </trkpt>
      <trkpt lat="42.07852" lon="9.15222">
        <ele>1610.06</ele>
        <time>2015-07-31T06:09:37Z</time>
      </trkpt>
      <trkpt lat="42.07862" lon="9.15243">
        <ele>1612.37</ele>
        <time>2015-07-31T06:09:51Z</time>
      </trkpt>
      <trkpt lat="42.07877" lon="9.15258">
        <ele>1612.3</ele>
        <time>2015-07-31T06:10:12Z</time>
      </trkpt>
      <trkpt lat="42.07893" lon="9.1527">
        <ele>1614.39</ele>
        <time>2015-07-31T06:10:51Z</time>
      </trkpt>
      <trkpt lat="42.0791" lon="9.15278">
        <ele>1612.22</ele>
        <time>2015-07-31T06:11:32Z</time>
      </trkpt>
      <trkpt lat="42.07922" lon="9.15295">
        <ele>1621.89</ele>
        <time>2015-07-31T06:12:03Z</time>
      </trkpt>
      <trkpt lat="42.07937" lon="9.1531">
        <ele>1616.75</ele>
        <time>2015-07-31T06:12:31Z</time>
      </trkpt>
      <trkpt lat="42.07951" lon="9.15329">
        <ele>1620.22</ele>
        <time>2015-07-31T06:12:48Z</time>
      </trkpt>
      <trkpt lat="42.07964" lon="9.15345">
        <ele>1622.84</ele>
        <time>2015-07-31T06:13:18Z</time>
      </trkpt>
      <trkpt lat="42.07974" lon="9.15366">
        <ele>1622.77</ele>
        <time>2015-07-31T06:13:54Z</time>
      </trkpt>
      <trkpt lat="42.07983" lon="9.15388">
        <ele>1631.45</ele>
        <time>2015-07-31T06:14:16Z</time>
      </trkpt>
      <trkpt lat="42.08" lon="9.15396">
        <ele>1626.34</ele>
        <time>2015-07-31T06:14:40Z</time>
      </trkpt>
      <trkpt lat="42.08016" lon="9.15408">
        <ele>1634.21</ele>
        <time>2015-07-31T06:14:57Z</time>
      </trkpt>
      <trkpt lat="42.08027" lon="9.15428">
        <ele>1636.03</ele>
        <time>2015-07-31T06:15:12Z</time>
      </trkpt>
      <trkpt lat="42.08037" lon="9.1545">
        <ele>1635.46</ele>
        <time>2015-07-31T06:15:27Z</time>
      </trkpt>
      <trkpt lat="42.08052" lon="9.15467">
        <ele>1627.67</ele>
        <time>2015-07-31T06:15:42Z</time>
      </trkpt>
      <trkpt lat="42.08069" lon="9.15477">
        <ele>1625.61</ele>
        <time>2015-07-31T06:15:56Z</time>
      </trkpt>
      <trkpt lat="42.08084" lon="9.15492">
        <ele>1623.03</ele>
        <time>2015-07-31T06:16:13Z</time>
      </trkpt>
      <trkpt lat="42.08089" lon="9.15516">
        <ele>1622.42</ele>
        <time>2015-07-31T06:16:34Z</time>
      </trkpt>
      <trkpt lat="42.08101" lon="9.15533">
        <ele>1619.84</ele>
        <time>2015-07-31T06:17:01Z</time>
      </trkpt>
      <trkpt lat="42.08112" lon="9.15552">
        <ele>1623.39</ele>
        <time>2015-07-31T06:17:27Z</time>
      </trkpt>
      <trkpt lat="42.08119" lon="9.15575">
        <ele>1611.95</ele>
        <time>2015-07-31T06:18:01Z</time>
      </trkpt>
      <trkpt lat="42.08123" lon="9.156">
        <ele>1611.01</ele>
        <time>2015-07-31T06:18:21Z</time>
      </trkpt>
      <trkpt lat="42.08123" lon="9.15624">
        <ele>1612.85</ele>
        <time>2015-07-31T06:18:40Z</time>
      </trkpt>
      <trkpt lat="42.08136" lon="9.15641">
        <ele>1605.93</ele>
        <time>2015-07-31T06:19:03Z</time>
      </trkpt>
      <trkpt lat="42.08155" lon="9.15644">
        <ele>1600.43</ele>
        <time>2015-07-31T06:19:24Z</time>
      </trkpt>
      <trkpt lat="42.0817" lon="9.15629">
        <ele>1594.3</ele>
        <time>2015-07-31T06:19:54Z</time>
      </trkpt>
      <trkpt lat="42.08184" lon="9.15614">
        <ele>1590.73</ele>
        <time>2015-07-31T06:20:21Z</time>
      </trkpt>
      <trkpt lat="42.08202" lon="9.15609">
        <ele>1586.95</ele>
        <time>2015-07-31T06:20:49Z</time>
      </trkpt>
      <trkpt lat="42.08219" lon="9.15598">
        <ele>1584.9</ele>
        <time>2015-07-31T06:21:24Z</time>
      </trkpt>
      <trkpt lat="42.08236" lon="9.15586">
        <ele>1585.27</ele>
        <time>2015-07-31T06:22:15Z</time>
      </trkpt>
      <trkpt lat="42.08252" lon="9.15576">
        <ele>1575.55</ele>
        <time>2015-07-31T06:22:51Z</time>
      </trkpt>
      <trkpt lat="42.08271" lon="9.15577">
        <ele>1573.09</ele>
        <time>2015-07-31T06:23:27Z</time>
      </trkpt>
      <trkpt lat="42.08287" lon="9.15566">
        <ele>1570.21</ele>
        <time>2015-07-31T06:23:48Z</time>
      </trkpt>
      <trkpt lat="42.083" lon="9.15548">
        <ele>1562.1</ele>
        <time>2015-07-31T06:24:22Z</time>
      </trkpt>
      <trkpt lat="42.08313" lon="9.15532">
        <ele>1558.22</ele>
        <time>2015-07-31T06:25:21Z</time>
      </trkpt>
      <trkpt lat="42.0832" lon="9.1551">
        <ele>1552.85</ele>
        <time>2015-07-31T06:26:07Z</time>
      </trkpt>
      <trkpt lat="42.08332" lon="9.15491">
        <ele>1549.85</ele>
        <time>2015-07-31T06:26:46Z</time>
      </trkpt>
      <trkpt lat="42.08348" lon="9.15479">
        <ele>1550.33</ele>
        <time>2015-07-31T06:27:17Z</time>
      </trkpt>
      <trkpt lat="42.08363" lon="9.15465">
        <ele>1553.12</ele>
        <time>2015-07-31T06:27:42Z</time>
      </trkpt>
      <trkpt lat="42.08377" lon="9.15448">
        <ele>1545.58</ele>
        <time>2015-07-31T06:28:26Z</time>
      </trkpt>
      <trkpt lat="42.08394" lon="9.1544">
        <ele>1543.15</ele>
        <time>2015-07-31T06:29:31Z</time>
      </trkpt>
      <trkpt lat="42.0841" lon="9.15427">
        <ele>1532.85</ele>
        <time>2015-07-31T06:30:05Z</time>
      </trkpt>
      <trkpt lat="42.08424" lon="9.15411">
        <ele>1517.75</ele>
        <time>2015-07-31T06:30:43Z</time>
      </trkpt>
      <trkpt lat="42.0844" lon="9.15399">
        <ele>1522.85</ele>
        <time>2015-07-31T06:31:17Z</time>
      </trkpt>
      <trkpt lat="42.08456" lon="9.1539">
        <ele>1519.47</ele>
        <time>2015-07-31T06:32:34Z</time>
      </trkpt>
      <trkpt lat="42.08474" lon="9.1539">
        <ele>1499.46</ele>
        <time>2015-07-31T06:34:18Z</time>
      </trkpt>
      <trkpt lat="42.0849" lon="9.15403">
        <ele>1484.15</ele>
        <time>2015-07-31T06:35:49Z</time>
      </trkpt>
      <trkpt lat="42.08506" lon="9.15416">
        <ele>1478.18</ele>
        <time>2015-07-31T06:36:45Z</time>
      </trkpt>
      <trkpt lat="42.08524" lon="9.15423">
        <ele>1472.59</ele>
        <time>2015-07-31T06:37:29Z</time>
      </trkpt>
      <trkpt lat="42.0854" lon="9.15435">
        <ele>1467.92</ele>
        <time>2015-07-31T06:38:01Z</time>
      </trkpt>
      <trkpt lat="42.08557" lon="9.1544">
        <ele>1459.57</ele>
        <time>2015-07-31T06:38:34Z</time>
      </trkpt>
      <trkpt lat="42.08573" lon="9.15453">
        <ele>1461.69</ele>
        <time>2015-07-31T06:39:34Z</time>
      </trkpt>
      <trkpt lat="42.08586" lon="9.15436">
        <ele>1447.8</ele>
        <time>2015-07-31T06:40:10Z</time>
      </trkpt>
      <trkpt lat="42.086" lon="9.15452">
        <ele>1454.35</ele>
        <time>2015-07-31T06:40:32Z</time>
      </trkpt>
      <trkpt lat="42.08613" lon="9.15469">
        <ele>1453.05</ele>
        <time>2015-07-31T06:40:47Z</time>
      </trkpt>
      <trkpt lat="42.08626" lon="9.15488">
        <ele>1455.59</ele>
        <time>2015-07-31T06:41:23Z</time>
      </trkpt>
      <trkpt lat="42.0864" lon="9.15509">
        <ele>1454.45</ele>
        <time>2015-07-31T06:41:30Z</time>
      </trkpt>
      <trkpt lat="42.08654" lon="9.15526">
        <ele>1444.18</ele>
        <time>2015-07-31T06:41:42Z</time>
      </trkpt>
      <trkpt lat="42.08667" lon="9.15545">
        <ele>1442.64</ele>
        <time>2015-07-31T06:41:59Z</time>
      </trkpt>
      <trkpt lat="42.08677" lon="9.15566">
        <ele>1441.72</ele>
        <time>2015-07-31T06:42:14Z</time>
      </trkpt>
      <trkpt lat="42.08691" lon="9.15581">
        <ele>1438.25</ele>
        <time>2015-07-31T06:42:28Z</time>
      </trkpt>
      <trkpt lat="42.08708" lon="9.15572">
        <ele>1444.04</ele>
        <time>2015-07-31T06:42:47Z</time>
      </trkpt>
      <trkpt lat="42.08724" lon="9.1556">
        <ele>1450.4</ele>
        <time>2015-07-31T06:43:16Z</time>
      </trkpt>
      <trkpt lat="42.08739" lon="9.15544">
        <ele>1455.66</ele>
        <time>2015-07-31T06:43:30Z</time>
      </trkpt>
      <trkpt lat="42.08752" lon="9.15527">
        <ele>1460.07</ele>
        <time>2015-07-31T06:43:48Z</time>
      </trkpt>
      <trkpt lat="42.08769" lon="9.15521">
        <ele>1462.15</ele>
        <time>2015-07-31T06:44:04Z</time>
      </trkpt>
      <trkpt lat="42.08787" lon="9.15512">
        <ele>1470.25</ele>
        <time>2015-07-31T06:44:17Z</time>
      </trkpt>
      <trkpt lat="42.08802" lon="9.15495">
        <ele>1463.14</ele>
        <time>2015-07-31T06:44:32Z</time>
      </trkpt>
      <trkpt lat="42.08817" lon="9.15483">
        <ele>1459.64</ele>
        <time>2015-07-31T06:44:49Z</time>
      </trkpt>
      <trkpt lat="42.0883" lon="9.15465">
        <ele>1461.15</ele>
        <time>2015-07-31T06:45:03Z</time>
      </trkpt>
      <trkpt lat="42.08845" lon="9.15448">
        <ele>1457.65</ele>
        <time>2015-07-31T06:45:21Z</time>
      </trkpt>
      <trkpt lat="42.08861" lon="9.15436">
        <ele>1456.14</ele>
        <time>2015-07-31T06:45:38Z</time>
      </trkpt>
      <trkpt lat="42.08878" lon="9.15426">
        <ele>1456.06</ele>
        <time>2015-07-31T06:45:57Z</time>
      </trkpt>
      <trkpt lat="42.08894" lon="9.15412">
        <ele>1454.63</ele>
        <time>2015-07-31T06:46:12Z</time>
      </trkpt>
      <trkpt lat="42.08911" lon="9.15404">
        <ele>1456.77</ele>
        <time>2015-07-31T06:46:32Z</time>
      </trkpt>
      <trkpt lat="42.08929" lon="9.15396">
        <ele>1456.82</ele>
        <time>2015-07-31T06:46:49Z</time>
      </trkpt>
      <trkpt lat="42.08947" lon="9.15389">
        <ele>1451.28</ele>
        <time>2015-07-31T06:47:07Z</time>
      </trkpt>
      <trkpt lat="42.08963" lon="9.15378">
        <ele>1447.61</ele>
        <time>2015-07-31T06:47:22Z</time>
      </trkpt>
      <trkpt lat="42.08981" lon="9.15371">
        <ele>1445.04</ele>
        <time>2015-07-31T06:47:41Z</time>
      </trkpt>
      <trkpt lat="42.08999" lon="9.15364">
        <ele>1448.2</ele>
        <time>2015-07-31T06:48:06Z</time>
      </trkpt>
      <trkpt lat="42.09013" lon="9.15346">
        <ele>1447.95</ele>
        <time>2015-07-31T06:48:23Z</time>
      </trkpt>
      <trkpt lat="42.09031" lon="9.15352">
        <ele>1431.2</ele>
        <time>2015-07-31T06:49:50Z</time>
      </trkpt>
      <trkpt lat="42.09046" lon="9.15366">
        <ele>1437.52</ele>
        <time>2015-07-31T06:50:26Z</time>
      </trkpt>
      <trkpt lat="42.09064" lon="9.15368">
        <ele>1433.31</ele>
        <time>2015-07-31T06:51:32Z</time>
      </trkpt>
      <trkpt lat="42.0908" lon="9.15382">
        <ele>1445.72</ele>
        <time>2015-07-31T06:52:24Z</time>
      </trkpt>
      <trkpt lat="42.09088" lon="9.15404">
        <ele>1448.51</ele>
        <time>2015-07-31T06:52:41Z</time>
      </trkpt>
      <trkpt lat="42.09087" lon="9.15429">
        <ele>1452.27</ele>
        <time>2015-07-31T06:53:05Z</time>
      </trkpt>
      <trkpt lat="42.09094" lon="9.15453">
        <ele>1455.27</ele>
        <time>2015-07-31T06:53:21Z</time>
      </trkpt>
      <trkpt lat="42.09097" lon="9.15477">
        <ele>1457.92</ele>
        <time>2015-07-31T06:53:35Z</time>
      </trkpt>
      <trkpt lat="42.09095" lon="9.15502">
        <ele>1467.03</ele>
        <time>2015-07-31T06:54:09Z</time>
      </trkpt>
      <trkpt lat="42.09089" lon="9.15526">
        <ele>1464.33</ele>
        <time>2015-07-31T06:54:58Z</time>
      </trkpt>
      <trkpt lat="42.0908" lon="9.15547">
        <ele>1468.3</ele>
        <time>2015-07-31T06:55:18Z</time>
      </trkpt>
      <trkpt lat="42.0908" lon="9.15571">
        <ele>1468.58</ele>
        <time>2015-07-31T06:55:40Z</time>
      </trkpt>
      <trkpt lat="42.09074" lon="9.15596">
        <ele>1468.91</ele>
        <time>2015-07-31T06:56:05Z</time>
      </trkpt>
      <trkpt lat="42.09074" lon="9.15622">
        <ele>1465.08</ele>
        <time>2015-07-31T06:56:20Z</time>
      </trkpt>
      <trkpt lat="42.09075" lon="9.15649">
        <ele>1475.09</ele>
        <time>2015-07-31T06:57:55Z</time>
      </trkpt>
      <trkpt lat="42.09081" lon="9.15674">
        <ele>1467.59</ele>
        <time>2015-07-31T07:00:04Z</time>
      </trkpt>
      <trkpt lat="42.09076" lon="9.15698">
        <ele>1472.57</ele>
        <time>2015-07-31T07:01:20Z</time>
      </trkpt>
      <trkpt lat="42.0908" lon="9.15722">
        <ele>1476</ele>
        <time>2015-07-31T07:01:40Z</time>
      </trkpt>
      <trkpt lat="42.09086" lon="9.15746">
        <ele>1478.91</ele>
        <time>2015-07-31T07:02:00Z</time>
      </trkpt>
      <trkpt lat="42.09098" lon="9.15765">
        <ele>1477.31</ele>
        <time>2015-07-31T07:02:15Z</time>
      </trkpt>
      <trkpt lat="42.09102" lon="9.15789">
        <ele>1489.3</ele>
        <time>2015-07-31T07:02:37Z</time>
      </trkpt>
      <trkpt lat="42.0912" lon="9.15798">
        <ele>1487.7</ele>
        <time>2015-07-31T07:02:58Z</time>
      </trkpt>
      <trkpt lat="42.09132" lon="9.15816">
        <ele>1494.77</ele>
        <time>2015-07-31T07:03:11Z</time>
      </trkpt>
      <trkpt lat="42.09147" lon="9.1583">
        <ele>1485.38</ele>
        <time>2015-07-31T07:03:27Z</time>
      </trkpt>
      <trkpt lat="42.09166" lon="9.15825">
        <ele>1480.01</ele>
        <time>2015-07-31T07:03:43Z</time>
      </trkpt>
      <trkpt lat="42.09184" lon="9.15823">
        <ele>1477.82</ele>
        <time>2015-07-31T07:03:59Z</time>
      </trkpt>
      <trkpt lat="42.09202" lon="9.15819">
        <ele>1481.37</ele>
        <time>2015-07-31T07:04:20Z</time>
      </trkpt>
      <trkpt lat="42.0922" lon="9.15814">
        <ele>1482.9</ele>
        <time>2015-07-31T07:04:43Z</time>
      </trkpt>
      <trkpt lat="42.09235" lon="9.15799">
        <ele>1484.41</ele>
        <time>2015-07-31T07:05:05Z</time>
      </trkpt>
      <trkpt lat="42.09249" lon="9.15783">
        <ele>1489.11</ele>
        <time>2015-07-31T07:05:35Z</time>
      </trkpt>
      <trkpt lat="42.09261" lon="9.15764">
        <ele>1496.21</ele>
        <time>2015-07-31T07:06:02Z</time>
      </trkpt>
      <trkpt lat="42.09276" lon="9.1575">
        <ele>1495.23</ele>
        <time>2015-07-31T07:06:18Z</time>
      </trkpt>
      <trkpt lat="42.09293" lon="9.1574">
        <ele>1500.93</ele>
        <time>2015-07-31T07:06:37Z</time>
      </trkpt>
      <trkpt lat="42.09308" lon="9.15727">
        <ele>1508.73</ele>
        <time>2015-07-31T07:06:52Z</time>
      </trkpt>
      <trkpt lat="42.09326" lon="9.1572">
        <ele>1508.22</ele>
        <time>2015-07-31T07:07:27Z</time>
      </trkpt>
      <trkpt lat="42.0934" lon="9.15704">
        <ele>1515.16</ele>
        <time>2015-07-31T07:08:17Z</time>
      </trkpt>
      <trkpt lat="42.09356" lon="9.15692">
        <ele>1524.29</ele>
        <time>2015-07-31T07:08:33Z</time>
      </trkpt>
      <trkpt lat="42.09371" lon="9.15676">
        <ele>1517.16</ele>
        <time>2015-07-31T07:08:47Z</time>
      </trkpt>
      <trkpt lat="42.09388" lon="9.15666">
        <ele>1520.81</ele>
        <time>2015-07-31T07:09:15Z</time>
      </trkpt>
      <trkpt lat="42.09406" lon="9.15659">
        <ele>1524.78</ele>
        <time>2015-07-31T07:09:38Z</time>
      </trkpt>
      <trkpt lat="42.09413" lon="9.15636">
        <ele>1529.27</ele>
        <time>2015-07-31T07:09:57Z</time>
      </trkpt>
      <trkpt lat="42.09422" lon="9.15615">
        <ele>1532.45</ele>
        <time>2015-07-31T07:10:20Z</time>
      </trkpt>
      <trkpt lat="42.09434" lon="9.15596">
        <ele>1537.04</ele>
        <time>2015-07-31T07:10:53Z</time>
      </trkpt>
      <trkpt lat="42.09448" lon="9.15581">
        <ele>1535.63</ele>
        <time>2015-07-31T07:11:17Z</time>
      </trkpt>
      <trkpt lat="42.09456" lon="9.15559">
        <ele>1542.42</ele>
        <time>2015-07-31T07:11:37Z</time>
      </trkpt>
      <trkpt lat="42.09462" lon="9.15536">
        <ele>1546.72</ele>
        <time>2015-07-31T07:11:59Z</time>
      </trkpt>
      <trkpt lat="42.09468" lon="9.15512">
        <ele>1545.74</ele>
        <time>2015-07-31T07:12:30Z</time>
      </trkpt>
      <trkpt lat="42.09473" lon="9.15489">
        <ele>1544.26</ele>
        <time>2015-07-31T07:12:47Z</time>
      </trkpt>
      <trkpt lat="42.0948" lon="9.15466">
        <ele>1540.1</ele>
        <time>2015-07-31T07:13:04Z</time>
      </trkpt>
      <trkpt lat="42.09493" lon="9.15446">
        <ele>1543.12</ele>
        <time>2015-07-31T07:13:33Z</time>
      </trkpt>
      <trkpt lat="42.09499" lon="9.15423">
        <ele>1548.47</ele>
        <time>2015-07-31T07:14:12Z</time>
      </trkpt>
      <trkpt lat="42.09515" lon="9.15412">
        <ele>1542.29</ele>
        <time>2015-07-31T07:15:52Z</time>
      </trkpt>
      <trkpt lat="42.09534" lon="9.15414">
        <ele>1557.03</ele>
        <time>2015-07-31T07:16:27Z</time>
      </trkpt>
      <trkpt lat="42.0955" lon="9.15426">
        <ele>1548.08</ele>
        <time>2015-07-31T07:16:45Z</time>
      </trkpt>
      <trkpt lat="42.09569" lon="9.1543">
        <ele>1549.25</ele>
        <time>2015-07-31T07:17:01Z</time>
      </trkpt>
      <trkpt lat="42.09587" lon="9.15434">
        <ele>1544.31</ele>
        <time>2015-07-31T07:17:20Z</time>
      </trkpt>
      <trkpt lat="42.09605" lon="9.1544">
        <ele>1547.77</ele>
        <time>2015-07-31T07:17:41Z</time>
      </trkpt>
      <trkpt lat="42.09623" lon="9.15437">
        <ele>1549.79</ele>
        <time>2015-07-31T07:18:06Z</time>
      </trkpt>
      <trkpt lat="42.09637" lon="9.15452">
        <ele>1554.36</ele>
        <time>2015-07-31T07:18:52Z</time>
      </trkpt>
      <trkpt lat="42.09648" lon="9.15472">
        <ele>1551.54</ele>
        <time>2015-07-31T07:19:04Z</time>
      </trkpt>
      <trkpt lat="42.09656" lon="9.15495">
        <ele>1547.67</ele>
        <time>2015-07-31T07:19:23Z</time>
      </trkpt>
      <trkpt lat="42.0967" lon="9.1551">
        <ele>1545.02</ele>
        <time>2015-07-31T07:19:45Z</time>
      </trkpt>
      <trkpt lat="42.09687" lon="9.15518">
        <ele>1543.15</ele>
        <time>2015-07-31T07:20:10Z</time>
      </trkpt>
      <trkpt lat="42.09705" lon="9.15526">
        <ele>1546.31</ele>
        <time>2015-07-31T07:20:33Z</time>
      </trkpt>
      <trkpt lat="42.09723" lon="9.1553">
        <ele>1557.65</ele>
        <time>2015-07-31T07:20:57Z</time>
      </trkpt>
      <trkpt lat="42.09741" lon="9.15534">
        <ele>1552.87</ele>
        <time>2015-07-31T07:21:25Z</time>
      </trkpt>
      <trkpt lat="42.09755" lon="9.1555">
        <ele>1546.09</ele>
        <time>2015-07-31T07:21:59Z</time>
      </trkpt>
      <trkpt lat="42.09769" lon="9.15568">
        <ele>1548.17</ele>
        <time>2015-07-31T07:22:07Z</time>
      </trkpt>
      <trkpt lat="42.09783" lon="9.15584">
        <ele>1544.66</ele>
        <time>2015-07-31T07:22:32Z</time>
      </trkpt>
      <trkpt lat="42.09798" lon="9.156">
        <ele>1548.93</ele>
        <time>2015-07-31T07:22:49Z</time>
      </trkpt>
      <trkpt lat="42.09813" lon="9.15613">
        <ele>1548.68</ele>
        <time>2015-07-31T07:23:06Z</time>
      </trkpt>
      <trkpt lat="42.09817" lon="9.15636">
        <ele>1542.5</ele>
        <time>2015-07-31T07:23:37Z</time>
      </trkpt>
      <trkpt lat="42.09825" lon="9.15659">
        <ele>1538.01</ele>
        <time>2015-07-31T07:23:52Z</time>
      </trkpt>
      <trkpt lat="42.09836" lon="9.1568">
        <ele>1544.7</ele>
        <time>2015-07-31T07:24:07Z</time>
      </trkpt>
      <trkpt lat="42.09851" lon="9.15692">
        <ele>1540.59</ele>
        <time>2015-07-31T07:24:32Z</time>
      </trkpt>
      <trkpt lat="42.09864" lon="9.15711">
        <ele>1556.48</ele>
        <time>2015-07-31T07:24:49Z</time>
      </trkpt>
      <trkpt lat="42.09876" lon="9.1573">
        <ele>1560.37</ele>
        <time>2015-07-31T07:25:05Z</time>
      </trkpt>
      <trkpt lat="42.0989" lon="9.15747">
        <ele>1560.63</ele>
        <time>2015-07-31T07:25:18Z</time>
      </trkpt>
      <trkpt lat="42.09906" lon="9.15759">
        <ele>1550.43</ele>
        <time>2015-07-31T07:25:36Z</time>
      </trkpt>
      <trkpt lat="42.09922" lon="9.15773">
        <ele>1549.73</ele>
        <time>2015-07-31T07:25:52Z</time>
      </trkpt>
      <trkpt lat="42.09931" lon="9.15794">
        <ele>1557.03</ele>
        <time>2015-07-31T07:26:09Z</time>
      </trkpt>
      <trkpt lat="42.09945" lon="9.1581">
        <ele>1554.72</ele>
        <time>2015-07-31T07:26:27Z</time>
      </trkpt>
      <trkpt lat="42.09957" lon="9.15829">
        <ele>1555.13</ele>
        <time>2015-07-31T07:26:47Z</time>
      </trkpt>
      <trkpt lat="42.09976" lon="9.1583">
        <ele>1548.44</ele>
        <time>2015-07-31T07:27:15Z</time>
      </trkpt>
      <trkpt lat="42.09991" lon="9.15843">
        <ele>1544.98</ele>
        <time>2015-07-31T07:27:29Z</time>
      </trkpt>
      <trkpt lat="42.10009" lon="9.15853">
        <ele>1546.99</ele>
        <time>2015-07-31T07:27:39Z</time>
      </trkpt>
      <trkpt lat="42.10023" lon="9.1587">
        <ele>1550.37</ele>
        <time>2015-07-31T07:28:18Z</time>
      </trkpt>
      <trkpt lat="42.10025" lon="9.15895">
        <ele>1558.12</ele>
        <time>2015-07-31T07:28:33Z</time>
      </trkpt>
      <trkpt lat="42.10036" lon="9.15915">
        <ele>1554.23</ele>
        <time>2015-07-31T07:28:47Z</time>
      </trkpt>
      <trkpt lat="42.10048" lon="9.15934">
        <ele>1553.01</ele>
        <time>2015-07-31T07:29:03Z</time>
      </trkpt>
      <trkpt lat="42.10062" lon="9.1595">
        <ele>1555.82</ele>
        <time>2015-07-31T07:29:19Z</time>
      </trkpt>
      <trkpt lat="42.10065" lon="9.15975">
        <ele>1561.35</ele>
        <time>2015-07-31T07:30:03Z</time>
      </trkpt>
      <trkpt lat="42.10071" lon="9.15998">
        <ele>1548.06</ele>
        <time>2015-07-31T07:30:21Z</time>
      </trkpt>
      <trkpt lat="42.10075" lon="9.16023">
        <ele>1550.85</ele>
        <time>2015-07-31T07:30:38Z</time>
      </trkpt>
      <trkpt lat="42.1008" lon="9.16049">
        <ele>1544.55</ele>
        <time>2015-07-31T07:30:56Z</time>
      </trkpt>
      <trkpt lat="42.10079" lon="9.16073">
        <ele>1550.46</ele>
        <time>2015-07-31T07:31:31Z</time>
      </trkpt>
      <trkpt lat="42.10081" lon="9.16099">
        <ele>1547.9</ele>
        <time>2015-07-31T07:31:39Z</time>
      </trkpt>
      <trkpt lat="42.10087" lon="9.16122">
        <ele>1536.85</ele>
        <time>2015-07-31T07:31:52Z</time>
      </trkpt>
      <trkpt lat="42.10092" lon="9.16147">
        <ele>1534.28</ele>
        <time>2015-07-31T07:32:19Z</time>
      </trkpt>
      <trkpt lat="42.10103" lon="9.16166">
        <ele>1539.18</ele>
        <time>2015-07-31T07:32:47Z</time>
      </trkpt>
      <trkpt lat="42.10118" lon="9.1618">
        <ele>1535.87</ele>
        <time>2015-07-31T07:33:15Z</time>
      </trkpt>
      <trkpt lat="42.10135" lon="9.16184">
        <ele>1541.54</ele>
        <time>2015-07-31T07:33:53Z</time>
      </trkpt>
      <trkpt lat="42.10151" lon="9.16195">
        <ele>1550.85</ele>
        <time>2015-07-31T07:34:06Z</time>
      </trkpt>
      <trkpt lat="42.1017" lon="9.16198">
        <ele>1545.32</ele>
        <time>2015-07-31T07:34:22Z</time>
      </trkpt>
      <trkpt lat="42.10185" lon="9.16212">
        <ele>1543.31</ele>
        <time>2015-07-31T07:34:58Z</time>
      </trkpt>
      <trkpt lat="42.10197" lon="9.16232">
        <ele>1546.28</ele>
        <time>2015-07-31T07:35:54Z</time>
      </trkpt>
      <trkpt lat="42.10209" lon="9.16251">
        <ele>1534</ele>
        <time>2015-07-31T07:36:17Z</time>
      </trkpt>
      <trkpt lat="42.10216" lon="9.16275">
        <ele>1534.34</ele>
        <time>2015-07-31T07:36:35Z</time>
      </trkpt>
      <trkpt lat="42.10222" lon="9.16299">
        <ele>1544.13</ele>
        <time>2015-07-31T07:36:50Z</time>
      </trkpt>
      <trkpt lat="42.10226" lon="9.16322">
        <ele>1544.03</ele>
        <time>2015-07-31T07:37:23Z</time>
      </trkpt>
      <trkpt lat="42.10231" lon="9.16346">
        <ele>1540.09</ele>
        <time>2015-07-31T07:37:46Z</time>
      </trkpt>
      <trkpt lat="42.10232" lon="9.16371">
        <ele>1541.51</ele>
        <time>2015-07-31T07:37:54Z</time>
      </trkpt>
      <trkpt lat="42.10233" lon="9.16397">
        <ele>1537.25</ele>
        <time>2015-07-31T07:38:16Z</time>
      </trkpt>
      <trkpt lat="42.1023" lon="9.16421">
        <ele>1543.92</ele>
        <time>2015-07-31T07:38:32Z</time>
      </trkpt>
      <trkpt lat="42.1024" lon="9.16442">
        <ele>1546.29</ele>
        <time>2015-07-31T07:38:52Z</time>
      </trkpt>
      <trkpt lat="42.10255" lon="9.16457">
        <ele>1548.5</ele>
        <time>2015-07-31T07:39:14Z</time>
      </trkpt>
      <trkpt lat="42.10263" lon="9.1648">
        <ele>1547.56</ele>
        <time>2015-07-31T07:39:35Z</time>
      </trkpt>
      <trkpt lat="42.10271" lon="9.16503">
        <ele>1552.22</ele>
        <time>2015-07-31T07:39:53Z</time>
      </trkpt>
      <trkpt lat="42.10278" lon="9.16526">
        <ele>1547.54</ele>
        <time>2015-07-31T07:40:32Z</time>
      </trkpt>
      <trkpt lat="42.10289" lon="9.16545">
        <ele>1536.97</ele>
        <time>2015-07-31T07:41:02Z</time>
      </trkpt>
      <trkpt lat="42.10306" lon="9.16556">
        <ele>1537.09</ele>
        <time>2015-07-31T07:41:23Z</time>
      </trkpt>
      <trkpt lat="42.10323" lon="9.16563">
        <ele>1540.84</ele>
        <time>2015-07-31T07:41:43Z</time>
      </trkpt>
      <trkpt lat="42.10341" lon="9.16568">
        <ele>1540.13</ele>
        <time>2015-07-31T07:42:07Z</time>
      </trkpt>
      <trkpt lat="42.10356" lon="9.16581">
        <ele>1537.14</ele>
        <time>2015-07-31T07:42:25Z</time>
      </trkpt>
      <trkpt lat="42.10374" lon="9.16588">
        <ele>1536.31</ele>
        <time>2015-07-31T07:43:05Z</time>
      </trkpt>
      <trkpt lat="42.10393" lon="9.16595">
        <ele>1534.37</ele>
        <time>2015-07-31T07:43:19Z</time>
      </trkpt>
      <trkpt lat="42.10407" lon="9.1661">
        <ele>1541.42</ele>
        <time>2015-07-31T07:43:35Z</time>
      </trkpt>
      <trkpt lat="42.10417" lon="9.16631">
        <ele>1544.07</ele>
        <time>2015-07-31T07:44:03Z</time>
      </trkpt>
      <trkpt lat="42.10415" lon="9.16656">
        <ele>1543.04</ele>
        <time>2015-07-31T07:44:16Z</time>
      </trkpt>
      <trkpt lat="42.10407" lon="9.16678">
        <ele>1551.47</ele>
        <time>2015-07-31T07:45:10Z</time>
      </trkpt>
      <trkpt lat="42.10398" lon="9.16701">
        <ele>1544.49</ele>
        <time>2015-07-31T07:45:21Z</time>
      </trkpt>
      <trkpt lat="42.10394" lon="9.16727">
        <ele>1545.16</ele>
        <time>2015-07-31T07:45:32Z</time>
      </trkpt>
      <trkpt lat="42.10386" lon="9.16749">
        <ele>1545.35</ele>
        <time>2015-07-31T07:45:45Z</time>
      </trkpt>
      <trkpt lat="42.10385" lon="9.16775">
        <ele>1526.69</ele>
        <time>2015-07-31T07:46:01Z</time>
      </trkpt>
      <trkpt lat="42.10383" lon="9.168">
        <ele>1518.32</ele>
        <time>2015-07-31T07:46:17Z</time>
      </trkpt>
      <trkpt lat="42.10383" lon="9.16825">
        <ele>1518.7</ele>
        <time>2015-07-31T07:46:33Z</time>
      </trkpt>
      <trkpt lat="42.10377" lon="9.16848">
        <ele>1513.77</ele>
        <time>2015-07-31T07:46:51Z</time>
      </trkpt>
      <trkpt lat="42.10367" lon="9.1687">
        <ele>1517.44</ele>
        <time>2015-07-31T07:47:07Z</time>
      </trkpt>
      <trkpt lat="42.10358" lon="9.16891">
        <ele>1525.34</ele>
        <time>2015-07-31T07:47:34Z</time>
      </trkpt>
      <trkpt lat="42.10342" lon="9.16904">
        <ele>1527.25</ele>
        <time>2015-07-31T07:47:47Z</time>
      </trkpt>
      <trkpt lat="42.10337" lon="9.16928">
        <ele>1516.11</ele>
        <time>2015-07-31T07:48:00Z</time>
      </trkpt>
      <trkpt lat="42.10324" lon="9.16947">
        <ele>1514.91</ele>
        <time>2015-07-31T07:48:19Z</time>
      </trkpt>
      <trkpt lat="42.10309" lon="9.16962">
        <ele>1519.57</ele>
        <time>2015-07-31T07:48:35Z</time>
      </trkpt>
      <trkpt lat="42.10297" lon="9.16981">
        <ele>1527.93</ele>
        <time>2015-07-31T07:48:58Z</time>
      </trkpt>
      <trkpt lat="42.10288" lon="9.17003">
        <ele>1528.58</ele>
        <time>2015-07-31T07:49:21Z</time>
      </trkpt>
      <trkpt lat="42.10276" lon="9.17023">
        <ele>1524.29</ele>
        <time>2015-07-31T07:49:47Z</time>
      </trkpt>
      <trkpt lat="42.10265" lon="9.17047">
        <ele>1526.82</ele>
        <time>2015-07-31T07:49:58Z</time>
      </trkpt>
      <trkpt lat="42.10259" lon="9.1707">
        <ele>1524</ele>
        <time>2015-07-31T07:50:09Z</time>
      </trkpt>
      <trkpt lat="42.10251" lon="9.17093">
        <ele>1517.08</ele>
        <time>2015-07-31T07:50:29Z</time>
      </trkpt>
      <trkpt lat="42.10245" lon="9.17116">
        <ele>1517.86</ele>
        <time>2015-07-31T07:50:41Z</time>
      </trkpt>
      <trkpt lat="42.10246" lon="9.17141">
        <ele>1516.64</ele>
        <time>2015-07-31T07:50:56Z</time>
      </trkpt>
      <trkpt lat="42.10248" lon="9.17165">
        <ele>1512.01</ele>
        <time>2015-07-31T07:51:13Z</time>
      </trkpt>
      <trkpt lat="42.10249" lon="9.1719">
        <ele>1511.55</ele>
        <time>2015-07-31T07:51:29Z</time>
      </trkpt>
      <trkpt lat="42.10252" lon="9.17215">
        <ele>1506.51</ele>
        <time>2015-07-31T07:51:42Z</time>
      </trkpt>
      <trkpt lat="42.10255" lon="9.1724">
        <ele>1505.97</ele>
        <time>2015-07-31T07:51:56Z</time>
      </trkpt>
      <trkpt lat="42.10248" lon="9.17263">
        <ele>1504.47</ele>
        <time>2015-07-31T07:52:17Z</time>
      </trkpt>
      <trkpt lat="42.10246" lon="9.17288">
        <ele>1505.47</ele>
        <time>2015-07-31T07:52:37Z</time>
      </trkpt>
      <trkpt lat="42.10256" lon="9.17267">
        <ele>1517.71</ele>
        <time>2015-07-31T08:09:59Z</time>
      </trkpt>
      <trkpt lat="42.10271" lon="9.1725">
        <ele>1515.5</ele>
        <time>2015-07-31T08:10:08Z</time>
      </trkpt>
      <trkpt lat="42.10288" lon="9.17239">
        <ele>1515.84</ele>
        <time>2015-07-31T08:10:20Z</time>
      </trkpt>
      <trkpt lat="42.10304" lon="9.17225">
        <ele>1515.75</ele>
        <time>2015-07-31T08:10:32Z</time>
      </trkpt>
      <trkpt lat="42.10317" lon="9.17208">
        <ele>1514.64</ele>
        <time>2015-07-31T08:10:50Z</time>
      </trkpt>
      <trkpt lat="42.10332" lon="9.17193">
        <ele>1516.31</ele>
        <time>2015-07-31T08:11:02Z</time>
      </trkpt>
      <trkpt lat="42.10348" lon="9.17179">
        <ele>1520.36</ele>
        <time>2015-07-31T08:11:11Z</time>
      </trkpt>
      <trkpt lat="42.10366" lon="9.17171">
        <ele>1527.42</ele>
        <time>2015-07-31T08:11:23Z</time>
      </trkpt>
      <trkpt lat="42.10377" lon="9.1715">
        <ele>1515.9</ele>
        <time>2015-07-31T08:11:37Z</time>
      </trkpt>
      <trkpt lat="42.10391" lon="9.17134">
        <ele>1518.24</ele>
        <time>2015-07-31T08:11:55Z</time>
      </trkpt>
      <trkpt lat="42.10407" lon="9.17124">
        <ele>1521.47</ele>
        <time>2015-07-31T08:12:11Z</time>
      </trkpt>
      <trkpt lat="42.10425" lon="9.17115">
        <ele>1520.84</ele>
        <time>2015-07-31T08:12:28Z</time>
      </trkpt>
      <trkpt lat="42.10441" lon="9.17103">
        <ele>1523.01</ele>
        <time>2015-07-31T08:12:41Z</time>
      </trkpt>
      <trkpt lat="42.10451" lon="9.17081">
        <ele>1520.62</ele>
        <time>2015-07-31T08:12:53Z</time>
      </trkpt>
      <trkpt lat="42.10467" lon="9.1707">
        <ele>1524.59</ele>
        <time>2015-07-31T08:13:07Z</time>
      </trkpt>
      <trkpt lat="42.10485" lon="9.17066">
        <ele>1528.61</ele>
        <time>2015-07-31T08:13:24Z</time>
      </trkpt>
      <trkpt lat="42.10497" lon="9.17047">
        <ele>1524.82</ele>
        <time>2015-07-31T08:13:35Z</time>
      </trkpt>
      <trkpt lat="42.10509" lon="9.17028">
        <ele>1525.46</ele>
        <time>2015-07-31T08:13:51Z</time>
      </trkpt>
      <trkpt lat="42.10525" lon="9.17016">
        <ele>1525.91</ele>
        <time>2015-07-31T08:14:06Z</time>
      </trkpt>
      <trkpt lat="42.10537" lon="9.16997">
        <ele>1524.76</ele>
        <time>2015-07-31T08:14:24Z</time>
      </trkpt>
      <trkpt lat="42.10544" lon="9.16974">
        <ele>1520.28</ele>
        <time>2015-07-31T08:14:43Z</time>
      </trkpt>
      <trkpt lat="42.10552" lon="9.1695">
        <ele>1519.06</ele>
        <time>2015-07-31T08:14:57Z</time>
      </trkpt>
      <trkpt lat="42.10566" lon="9.16935">
        <ele>1520.8</ele>
        <time>2015-07-31T08:15:12Z</time>
      </trkpt>
      <trkpt lat="42.10579" lon="9.16915">
        <ele>1521.79</ele>
        <time>2015-07-31T08:15:44Z</time>
      </trkpt>
      <trkpt lat="42.10581" lon="9.1689">
        <ele>1515.7</ele>
        <time>2015-07-31T08:15:59Z</time>
      </trkpt>
      <trkpt lat="42.10586" lon="9.16866">
        <ele>1516.1</ele>
        <time>2015-07-31T08:16:15Z</time>
      </trkpt>
      <trkpt lat="42.10595" lon="9.16844">
        <ele>1517.59</ele>
        <time>2015-07-31T08:16:30Z</time>
      </trkpt>
      <trkpt lat="42.1061" lon="9.16831">
        <ele>1528.85</ele>
        <time>2015-07-31T08:16:54Z</time>
      </trkpt>
      <trkpt lat="42.10617" lon="9.16807">
        <ele>1524.84</ele>
        <time>2015-07-31T08:17:10Z</time>
      </trkpt>
      <trkpt lat="42.10625" lon="9.16784">
        <ele>1527.29</ele>
        <time>2015-07-31T08:17:30Z</time>
      </trkpt>
      <trkpt lat="42.10631" lon="9.16761">
        <ele>1531.53</ele>
        <time>2015-07-31T08:17:54Z</time>
      </trkpt>
      <trkpt lat="42.1065" lon="9.16761">
        <ele>1528.2</ele>
        <time>2015-07-31T08:18:24Z</time>
      </trkpt>
      <trkpt lat="42.10668" lon="9.16752">
        <ele>1523.28</ele>
        <time>2015-07-31T08:19:09Z</time>
      </trkpt>
      <trkpt lat="42.10686" lon="9.16749">
        <ele>1526.71</ele>
        <time>2015-07-31T08:19:29Z</time>
      </trkpt>
      <trkpt lat="42.10704" lon="9.16745">
        <ele>1527.5</ele>
        <time>2015-07-31T08:19:52Z</time>
      </trkpt>
      <trkpt lat="42.1072" lon="9.16734">
        <ele>1532.39</ele>
        <time>2015-07-31T08:20:23Z</time>
      </trkpt>
      <trkpt lat="42.10735" lon="9.16719">
        <ele>1533.26</ele>
        <time>2015-07-31T08:20:41Z</time>
      </trkpt>
      <trkpt lat="42.10754" lon="9.16718">
        <ele>1540.93</ele>
        <time>2015-07-31T08:21:07Z</time>
      </trkpt>
      <trkpt lat="42.10771" lon="9.16726">
        <ele>1544.43</ele>
        <time>2015-07-31T08:21:26Z</time>
      </trkpt>
      <trkpt lat="42.10788" lon="9.16734">
        <ele>1543.86</ele>
        <time>2015-07-31T08:21:45Z</time>
      </trkpt>
      <trkpt lat="42.10805" lon="9.16744">
        <ele>1546.14</ele>
        <time>2015-07-31T08:22:07Z</time>
      </trkpt>
      <trkpt lat="42.10821" lon="9.16757">
        <ele>1547.34</ele>
        <time>2015-07-31T08:22:22Z</time>
      </trkpt>
      <trkpt lat="42.10838" lon="9.16767">
        <ele>1551.39</ele>
        <time>2015-07-31T08:22:37Z</time>
      </trkpt>
      <trkpt lat="42.10856" lon="9.16776">
        <ele>1553.89</ele>
        <time>2015-07-31T08:22:56Z</time>
      </trkpt>
      <trkpt lat="42.1087" lon="9.16792">
        <ele>1559.46</ele>
        <time>2015-07-31T08:23:20Z</time>
      </trkpt>
      <trkpt lat="42.10886" lon="9.16803">
        <ele>1555.48</ele>
        <time>2015-07-31T08:23:39Z</time>
      </trkpt>
      <trkpt lat="42.10902" lon="9.16816">
        <ele>1555.97</ele>
        <time>2015-07-31T08:23:53Z</time>
      </trkpt>
      <trkpt lat="42.10918" lon="9.16802">
        <ele>1552.98</ele>
        <time>2015-07-31T08:24:11Z</time>
      </trkpt>
      <trkpt lat="42.10922" lon="9.16777">
        <ele>1548.61</ele>
        <time>2015-07-31T08:24:28Z</time>
      </trkpt>
      <trkpt lat="42.10923" lon="9.16752">
        <ele>1546.18</ele>
        <time>2015-07-31T08:24:44Z</time>
      </trkpt>
      <trkpt lat="42.10925" lon="9.16727">
        <ele>1547.34</ele>
        <time>2015-07-31T08:25:00Z</time>
      </trkpt>
      <trkpt lat="42.10926" lon="9.16701">
        <ele>1547.81</ele>
        <time>2015-07-31T08:25:18Z</time>
      </trkpt>
      <trkpt lat="42.10925" lon="9.16677">
        <ele>1549.33</ele>
        <time>2015-07-31T08:25:35Z</time>
      </trkpt>
      <trkpt lat="42.10925" lon="9.16651">
        <ele>1546.24</ele>
        <time>2015-07-31T08:25:54Z</time>
      </trkpt>
      <trkpt lat="42.10923" lon="9.16626">
        <ele>1547.36</ele>
        <time>2015-07-31T08:26:12Z</time>
      </trkpt>
      <trkpt lat="42.10916" lon="9.16603">
        <ele>1549.31</ele>
        <time>2015-07-31T08:26:27Z</time>
      </trkpt>
      <trkpt lat="42.10919" lon="9.16579">
        <ele>1550.25</ele>
        <time>2015-07-31T08:26:46Z</time>
      </trkpt>
      <trkpt lat="42.10906" lon="9.16559">
        <ele>1546.98</ele>
        <time>2015-07-31T08:27:05Z</time>
      </trkpt>
      <trkpt lat="42.10905" lon="9.16534">
        <ele>1541.4</ele>
        <time>2015-07-31T08:27:21Z</time>
      </trkpt>
      <trkpt lat="42.10901" lon="9.1651">
        <ele>1543.86</ele>
        <time>2015-07-31T08:27:38Z</time>
      </trkpt>
      <trkpt lat="42.10899" lon="9.16485">
        <ele>1549.34</ele>
        <time>2015-07-31T08:27:58Z</time>
      </trkpt>
      <trkpt lat="42.10894" lon="9.16462">
        <ele>1554.52</ele>
        <time>2015-07-31T08:28:23Z</time>
      </trkpt>
      <trkpt lat="42.1089" lon="9.16438">
        <ele>1555.71</ele>
        <time>2015-07-31T08:28:47Z</time>
      </trkpt>
      <trkpt lat="42.10884" lon="9.16415">
        <ele>1553.08</ele>
        <time>2015-07-31T08:29:11Z</time>
      </trkpt>
      <trkpt lat="42.10879" lon="9.1639">
        <ele>1554.81</ele>
        <time>2015-07-31T08:29:36Z</time>
      </trkpt>
      <trkpt lat="42.10875" lon="9.16367">
        <ele>1555.57</ele>
        <time>2015-07-31T08:30:09Z</time>
      </trkpt>
      <trkpt lat="42.10874" lon="9.16342">
        <ele>1560.15</ele>
        <time>2015-07-31T08:30:28Z</time>
      </trkpt>
      <trkpt lat="42.10872" lon="9.16318">
        <ele>1558.09</ele>
        <time>2015-07-31T08:30:44Z</time>
      </trkpt>
      <trkpt lat="42.10868" lon="9.16293">
        <ele>1563.34</ele>
        <time>2015-07-31T08:31:03Z</time>
      </trkpt>
      <trkpt lat="42.10858" lon="9.16272">
        <ele>1563.4</ele>
        <time>2015-07-31T08:31:25Z</time>
      </trkpt>
      <trkpt lat="42.10847" lon="9.16251">
        <ele>1562.12</ele>
        <time>2015-07-31T08:31:43Z</time>
      </trkpt>
      <trkpt lat="42.10847" lon="9.16226">
        <ele>1562.09</ele>
        <time>2015-07-31T08:32:01Z</time>
      </trkpt>
      <trkpt lat="42.10849" lon="9.16201">
        <ele>1562.47</ele>
        <time>2015-07-31T08:32:22Z</time>
      </trkpt>
      <trkpt lat="42.10844" lon="9.16177">
        <ele>1567.21</ele>
        <time>2015-07-31T08:32:56Z</time>
      </trkpt>
      <trkpt lat="42.10848" lon="9.16153">
        <ele>1564.52</ele>
        <time>2015-07-31T08:33:22Z</time>
      </trkpt>
      <trkpt lat="42.10847" lon="9.16129">
        <ele>1561.69</ele>
        <time>2015-07-31T08:33:41Z</time>
      </trkpt>
      <trkpt lat="42.10843" lon="9.16104">
        <ele>1559.51</ele>
        <time>2015-07-31T08:33:56Z</time>
      </trkpt>
      <trkpt lat="42.10839" lon="9.16079">
        <ele>1559.37</ele>
        <time>2015-07-31T08:34:12Z</time>
      </trkpt>
      <trkpt lat="42.1084" lon="9.16054">
        <ele>1559.22</ele>
        <time>2015-07-31T08:34:32Z</time>
      </trkpt>
      <trkpt lat="42.10841" lon="9.1603">
        <ele>1558.45</ele>
        <time>2015-07-31T08:34:53Z</time>
      </trkpt>
      <trkpt lat="42.10844" lon="9.16004">
        <ele>1558.03</ele>
        <time>2015-07-31T08:35:13Z</time>
      </trkpt>
      <trkpt lat="42.10844" lon="9.15979">
        <ele>1551.2</ele>
        <time>2015-07-31T08:35:30Z</time>
      </trkpt>
      <trkpt lat="42.10845" lon="9.15954">
        <ele>1548.4</ele>
        <time>2015-07-31T08:35:50Z</time>
      </trkpt>
      <trkpt lat="42.10848" lon="9.15929">
        <ele>1547.58</ele>
        <time>2015-07-31T08:36:02Z</time>
      </trkpt>
      <trkpt lat="42.10849" lon="9.15904">
        <ele>1547.46</ele>
        <time>2015-07-31T08:36:16Z</time>
      </trkpt>
      <trkpt lat="42.10855" lon="9.15881">
        <ele>1550.64</ele>
        <time>2015-07-31T08:36:40Z</time>
      </trkpt>
      <trkpt lat="42.10864" lon="9.15859">
        <ele>1546.35</ele>
        <time>2015-07-31T08:36:57Z</time>
      </trkpt>
      <trkpt lat="42.10859" lon="9.15835">
        <ele>1545.75</ele>
        <time>2015-07-31T08:37:20Z</time>
      </trkpt>
      <trkpt lat="42.10861" lon="9.15811">
        <ele>1549</ele>
        <time>2015-07-31T08:37:42Z</time>
      </trkpt>
      <trkpt lat="42.10876" lon="9.15796">
        <ele>1543.65</ele>
        <time>2015-07-31T08:38:19Z</time>
      </trkpt>
      <trkpt lat="42.10892" lon="9.15784">
        <ele>1542.71</ele>
        <time>2015-07-31T08:38:38Z</time>
      </trkpt>
      <trkpt lat="42.10899" lon="9.1576">
        <ele>1545.5</ele>
        <time>2015-07-31T08:38:55Z</time>
      </trkpt>
      <trkpt lat="42.10908" lon="9.15737">
        <ele>1551.29</ele>
        <time>2015-07-31T08:39:16Z</time>
      </trkpt>
      <trkpt lat="42.10917" lon="9.15716">
        <ele>1547.71</ele>
        <time>2015-07-31T08:39:33Z</time>
      </trkpt>
      <trkpt lat="42.10929" lon="9.15698">
        <ele>1552.33</ele>
        <time>2015-07-31T08:39:53Z</time>
      </trkpt>
      <trkpt lat="42.10946" lon="9.15689">
        <ele>1567.64</ele>
        <time>2015-07-31T08:47:23Z</time>
      </trkpt>
      <trkpt lat="42.10963" lon="9.1568">
        <ele>1562.8</ele>
        <time>2015-07-31T08:48:08Z</time>
      </trkpt>
      <trkpt lat="42.10981" lon="9.15677">
        <ele>1565.29</ele>
        <time>2015-07-31T08:48:43Z</time>
      </trkpt>
      <trkpt lat="42.10998" lon="9.15685">
        <ele>1569.15</ele>
        <time>2015-07-31T08:48:59Z</time>
      </trkpt>
      <trkpt lat="42.11016" lon="9.15694">
        <ele>1570.71</ele>
        <time>2015-07-31T08:49:14Z</time>
      </trkpt>
      <trkpt lat="42.11034" lon="9.15699">
        <ele>1577.79</ele>
        <time>2015-07-31T08:49:32Z</time>
      </trkpt>
      <trkpt lat="42.11051" lon="9.15707">
        <ele>1579.09</ele>
        <time>2015-07-31T08:49:54Z</time>
      </trkpt>
      <trkpt lat="42.11067" lon="9.15719">
        <ele>1579.34</ele>
        <time>2015-07-31T08:50:19Z</time>
      </trkpt>
      <trkpt lat="42.11083" lon="9.15732">
        <ele>1584.99</ele>
        <time>2015-07-31T08:50:35Z</time>
      </trkpt>
      <trkpt lat="42.11098" lon="9.15747">
        <ele>1590.19</ele>
        <time>2015-07-31T08:50:53Z</time>
      </trkpt>
      <trkpt lat="42.11115" lon="9.15756">
        <ele>1589.8</ele>
        <time>2015-07-31T08:51:30Z</time>
      </trkpt>
      <trkpt lat="42.1113" lon="9.15769">
        <ele>1596.27</ele>
        <time>2015-07-31T08:51:51Z</time>
      </trkpt>
      <trkpt lat="42.11145" lon="9.15784">
        <ele>1592.09</ele>
        <time>2015-07-31T08:52:15Z</time>
      </trkpt>
      <trkpt lat="42.1116" lon="9.15798">
        <ele>1593.87</ele>
        <time>2015-07-31T08:52:39Z</time>
      </trkpt>
      <trkpt lat="42.11177" lon="9.15804">
        <ele>1601.39</ele>
        <time>2015-07-31T08:53:04Z</time>
      </trkpt>
      <trkpt lat="42.11196" lon="9.15809">
        <ele>1605.56</ele>
        <time>2015-07-31T08:53:43Z</time>
      </trkpt>
      <trkpt lat="42.11214" lon="9.1581">
        <ele>1611.75</ele>
        <time>2015-07-31T08:54:04Z</time>
      </trkpt>
      <trkpt lat="42.11232" lon="9.15804">
        <ele>1609.53</ele>
        <time>2015-07-31T08:54:21Z</time>
      </trkpt>
      <trkpt lat="42.11251" lon="9.15802">
        <ele>1609.58</ele>
        <time>2015-07-31T08:54:42Z</time>
      </trkpt>
      <trkpt lat="42.11269" lon="9.15799">
        <ele>1611.83</ele>
        <time>2015-07-31T08:55:05Z</time>
      </trkpt>
      <trkpt lat="42.11287" lon="9.15793">
        <ele>1617.96</ele>
        <time>2015-07-31T08:55:27Z</time>
      </trkpt>
      <trkpt lat="42.11304" lon="9.15788">
        <ele>1618.28</ele>
        <time>2015-07-31T08:55:49Z</time>
      </trkpt>
      <trkpt lat="42.11323" lon="9.15783">
        <ele>1624.74</ele>
        <time>2015-07-31T08:56:13Z</time>
      </trkpt>
      <trkpt lat="42.1134" lon="9.15777">
        <ele>1628.81</ele>
        <time>2015-07-31T08:56:36Z</time>
      </trkpt>
      <trkpt lat="42.11358" lon="9.15774">
        <ele>1631.25</ele>
        <time>2015-07-31T08:57:01Z</time>
      </trkpt>
      <trkpt lat="42.11376" lon="9.15769">
        <ele>1637.62</ele>
        <time>2015-07-31T08:57:30Z</time>
      </trkpt>
      <trkpt lat="42.11394" lon="9.15766">
        <ele>1639.23</ele>
        <time>2015-07-31T08:57:57Z</time>
      </trkpt>
      <trkpt lat="42.11406" lon="9.15747">
        <ele>1641.99</ele>
        <time>2015-07-31T08:58:20Z</time>
      </trkpt>
      <trkpt lat="42.11412" lon="9.15722">
        <ele>1644.67</ele>
        <time>2015-07-31T09:00:26Z</time>
      </trkpt>
      <trkpt lat="42.1142" lon="9.157">
        <ele>1639.53</ele>
        <time>2015-07-31T09:02:24Z</time>
      </trkpt>
      <trkpt lat="42.11433" lon="9.15683">
        <ele>1640.43</ele>
        <time>2015-07-31T09:02:45Z</time>
      </trkpt>
      <trkpt lat="42.11443" lon="9.15662">
        <ele>1634.75</ele>
        <time>2015-07-31T09:03:09Z</time>
      </trkpt>
      <trkpt lat="42.11452" lon="9.1564">
        <ele>1629.28</ele>
        <time>2015-07-31T09:03:39Z</time>
      </trkpt>
      <trkpt lat="42.11459" lon="9.15618">
        <ele>1626.45</ele>
        <time>2015-07-31T09:04:05Z</time>
      </trkpt>
      <trkpt lat="42.11465" lon="9.15594">
        <ele>1621.57</ele>
        <time>2015-07-31T09:04:39Z</time>
      </trkpt>
      <trkpt lat="42.11462" lon="9.1557">
        <ele>1616.57</ele>
        <time>2015-07-31T09:04:59Z</time>
      </trkpt>
      <trkpt lat="42.11456" lon="9.15547">
        <ele>1614.47</ele>
        <time>2015-07-31T09:05:20Z</time>
      </trkpt>
      <trkpt lat="42.11454" lon="9.15522">
        <ele>1611.5</ele>
        <time>2015-07-31T09:05:51Z</time>
      </trkpt>
      <trkpt lat="42.1145" lon="9.15498">
        <ele>1608.98</ele>
        <time>2015-07-31T09:06:31Z</time>
      </trkpt>
      <trkpt lat="42.11443" lon="9.15475">
        <ele>1605.07</ele>
        <time>2015-07-31T09:07:08Z</time>
      </trkpt>
      <trkpt lat="42.11434" lon="9.15455">
        <ele>1605.54</ele>
        <time>2015-07-31T09:11:51Z</time>
      </trkpt>
      <trkpt lat="42.11421" lon="9.15437">
        <ele>1599.55</ele>
        <time>2015-07-31T09:12:38Z</time>
      </trkpt>
      <trkpt lat="42.11413" lon="9.15416">
        <ele>1598.7</ele>
        <time>2015-07-31T09:12:59Z</time>
      </trkpt>
      <trkpt lat="42.11421" lon="9.15393">
        <ele>1595.92</ele>
        <time>2015-07-31T09:14:13Z</time>
      </trkpt>
      <trkpt lat="42.11439" lon="9.15399">
        <ele>1585.48</ele>
        <time>2015-07-31T09:14:52Z</time>
      </trkpt>
      <trkpt lat="42.11435" lon="9.15374">
        <ele>1576.71</ele>
        <time>2015-07-31T09:15:41Z</time>
      </trkpt>
      <trkpt lat="42.11424" lon="9.15355">
        <ele>1576.52</ele>
        <time>2015-07-31T09:16:03Z</time>
      </trkpt>
      <trkpt lat="42.11413" lon="9.15334">
        <ele>1571.51</ele>
        <time>2015-07-31T09:16:26Z</time>
      </trkpt>
      <trkpt lat="42.11431" lon="9.15332">
        <ele>1569.69</ele>
        <time>2015-07-31T09:17:29Z</time>
      </trkpt>
      <trkpt lat="42.11449" lon="9.15338">
        <ele>1571.9</ele>
        <time>2015-07-31T09:17:55Z</time>
      </trkpt>
      <trkpt lat="42.11468" lon="9.15342">
        <ele>1567.71</ele>
        <time>2015-07-31T09:18:34Z</time>
      </trkpt>
      <trkpt lat="42.1148" lon="9.15324">
        <ele>1559.25</ele>
        <time>2015-07-31T09:19:08Z</time>
      </trkpt>
      <trkpt lat="42.11469" lon="9.15303">
        <ele>1555.41</ele>
        <time>2015-07-31T09:19:30Z</time>
      </trkpt>
      <trkpt lat="42.11463" lon="9.1528">
        <ele>1554.48</ele>
        <time>2015-07-31T09:19:55Z</time>
      </trkpt>
      <trkpt lat="42.11457" lon="9.15256">
        <ele>1549.51</ele>
        <time>2015-07-31T09:20:19Z</time>
      </trkpt>
      <trkpt lat="42.11463" lon="9.15232">
        <ele>1545.5</ele>
        <time>2015-07-31T09:20:54Z</time>
      </trkpt>
      <trkpt lat="42.11471" lon="9.1521">
        <ele>1546.43</ele>
        <time>2015-07-31T09:21:21Z</time>
      </trkpt>
      <trkpt lat="42.11478" lon="9.15188">
        <ele>1543.33</ele>
        <time>2015-07-31T09:21:47Z</time>
      </trkpt>
      <trkpt lat="42.11491" lon="9.1517">
        <ele>1539.79</ele>
        <time>2015-07-31T09:22:16Z</time>
      </trkpt>
      <trkpt lat="42.11501" lon="9.15149">
        <ele>1542.97</ele>
        <time>2015-07-31T09:22:48Z</time>
      </trkpt>
      <trkpt lat="42.11514" lon="9.15132">
        <ele>1535.75</ele>
        <time>2015-07-31T09:23:15Z</time>
      </trkpt>
      <trkpt lat="42.11529" lon="9.15117">
        <ele>1533.6</ele>
        <time>2015-07-31T09:23:35Z</time>
      </trkpt>
      <trkpt lat="42.11542" lon="9.15099">
        <ele>1529.24</ele>
        <time>2015-07-31T09:23:53Z</time>
      </trkpt>
      <trkpt lat="42.11552" lon="9.15079">
        <ele>1530.97</ele>
        <time>2015-07-31T09:24:16Z</time>
      </trkpt>
      <trkpt lat="42.11564" lon="9.1506">
        <ele>1527.68</ele>
        <time>2015-07-31T09:24:43Z</time>
      </trkpt>
      <trkpt lat="42.1158" lon="9.15048">
        <ele>1526.16</ele>
        <time>2015-07-31T09:25:07Z</time>
      </trkpt>
      <trkpt lat="42.11596" lon="9.15033">
        <ele>1518.57</ele>
        <time>2015-07-31T09:25:34Z</time>
      </trkpt>
      <trkpt lat="42.1161" lon="9.15018">
        <ele>1520.88</ele>
        <time>2015-07-31T09:25:53Z</time>
      </trkpt>
      <trkpt lat="42.11623" lon="9.15">
        <ele>1518.59</ele>
        <time>2015-07-31T09:26:05Z</time>
      </trkpt>
      <trkpt lat="42.11635" lon="9.1498">
        <ele>1515.03</ele>
        <time>2015-07-31T09:26:27Z</time>
      </trkpt>
      <trkpt lat="42.11651" lon="9.14966">
        <ele>1516.38</ele>
        <time>2015-07-31T09:26:49Z</time>
      </trkpt>
      <trkpt lat="42.11664" lon="9.1495">
        <ele>1509.66</ele>
        <time>2015-07-31T09:27:09Z</time>
      </trkpt>
      <trkpt lat="42.11678" lon="9.14934">
        <ele>1509.39</ele>
        <time>2015-07-31T09:27:28Z</time>
      </trkpt>
      <trkpt lat="42.11694" lon="9.1492">
        <ele>1508.48</ele>
        <time>2015-07-31T09:27:52Z</time>
      </trkpt>
      <trkpt lat="42.11706" lon="9.14901">
        <ele>1503.84</ele>
        <time>2015-07-31T09:28:05Z</time>
      </trkpt>
      <trkpt lat="42.11715" lon="9.1488">
        <ele>1500.67</ele>
        <time>2015-07-31T09:28:40Z</time>
      </trkpt>
      <trkpt lat="42.11723" lon="9.14857">
        <ele>1498.72</ele>
        <time>2015-07-31T09:28:56Z</time>
      </trkpt>
      <trkpt lat="42.11729" lon="9.14833">
        <ele>1497.95</ele>
        <time>2015-07-31T09:29:20Z</time>
      </trkpt>
      <trkpt lat="42.11738" lon="9.14811">
        <ele>1497.47</ele>
        <time>2015-07-31T09:29:40Z</time>
      </trkpt>
      <trkpt lat="42.11744" lon="9.14787">
        <ele>1493.96</ele>
        <time>2015-07-31T09:30:02Z</time>
      </trkpt>
      <trkpt lat="42.1175" lon="9.14764">
        <ele>1489.04</ele>
        <time>2015-07-31T09:30:22Z</time>
      </trkpt>
      <trkpt lat="42.11753" lon="9.1474">
        <ele>1477.8</ele>
        <time>2015-07-31T09:30:46Z</time>
      </trkpt>
      <trkpt lat="42.11741" lon="9.1472">
        <ele>1479.66</ele>
        <time>2015-07-31T09:31:02Z</time>
      </trkpt>
      <trkpt lat="42.11731" lon="9.14699">
        <ele>1482.04</ele>
        <time>2015-07-31T09:31:27Z</time>
      </trkpt>
      <trkpt lat="42.11723" lon="9.14676">
        <ele>1483.89</ele>
        <time>2015-07-31T09:31:48Z</time>
      </trkpt>
      <trkpt lat="42.11716" lon="9.14653">
        <ele>1482.6</ele>
        <time>2015-07-31T09:32:07Z</time>
      </trkpt>
      <trkpt lat="42.11711" lon="9.14629">
        <ele>1480.92</ele>
        <time>2015-07-31T09:32:38Z</time>
      </trkpt>
      <trkpt lat="42.11701" lon="9.14608">
        <ele>1483.6</ele>
        <time>2015-07-31T09:32:50Z</time>
      </trkpt>
      <trkpt lat="42.11696" lon="9.14583">
        <ele>1478.01</ele>
        <time>2015-07-31T09:33:08Z</time>
      </trkpt>
      <trkpt lat="42.11684" lon="9.14565">
        <ele>1468.21</ele>
        <time>2015-07-31T09:33:23Z</time>
      </trkpt>
      <trkpt lat="42.11675" lon="9.14544">
        <ele>1465.23</ele>
        <time>2015-07-31T09:33:41Z</time>
      </trkpt>
      <trkpt lat="42.11672" lon="9.14518">
        <ele>1458.35</ele>
        <time>2015-07-31T09:34:32Z</time>
      </trkpt>
      <trkpt lat="42.11665" lon="9.14495">
        <ele>1448.47</ele>
        <time>2015-07-31T09:34:57Z</time>
      </trkpt>
      <trkpt lat="42.11647" lon="9.14489">
        <ele>1439.97</ele>
        <time>2015-07-31T09:35:37Z</time>
      </trkpt>
      <trkpt lat="42.11628" lon="9.14484">
        <ele>1444.09</ele>
        <time>2015-07-31T09:35:59Z</time>
      </trkpt>
      <trkpt lat="42.11611" lon="9.14478">
        <ele>1439.42</ele>
        <time>2015-07-31T09:36:19Z</time>
      </trkpt>
      <trkpt lat="42.11593" lon="9.14474">
        <ele>1438.1</ele>
        <time>2015-07-31T09:36:56Z</time>
      </trkpt>
      <trkpt lat="42.11576" lon="9.14463">
        <ele>1428.95</ele>
        <time>2015-07-31T09:38:01Z</time>
      </trkpt>
      <trkpt lat="42.11589" lon="9.14444">
        <ele>1423.72</ele>
        <time>2015-07-31T09:39:32Z</time>
      </trkpt>
      <trkpt lat="42.11606" lon="9.14435">
        <ele>1418.95</ele>
        <time>2015-07-31T09:39:47Z</time>
      </trkpt>
      <trkpt lat="42.11593" lon="9.14418">
        <ele>1400.37</ele>
        <time>2015-07-31T09:40:38Z</time>
      </trkpt>
      <trkpt lat="42.11578" lon="9.14404">
        <ele>1400.68</ele>
        <time>2015-07-31T09:41:29Z</time>
      </trkpt>
      <trkpt lat="42.11563" lon="9.1439">
        <ele>1388.97</ele>
        <time>2015-07-31T09:42:41Z</time>
      </trkpt>
      <trkpt lat="42.11563" lon="9.14365">
        <ele>1386.3</ele>
        <time>2015-07-31T09:44:09Z</time>
      </trkpt>
      <trkpt lat="42.11575" lon="9.14345">
        <ele>1375.73</ele>
        <time>2015-07-31T09:45:06Z</time>
      </trkpt>
      <trkpt lat="42.11564" lon="9.14325">
        <ele>1358.73</ele>
        <time>2015-07-31T09:45:50Z</time>
      </trkpt>
      <trkpt lat="42.11546" lon="9.14326">
        <ele>1348.06</ele>
        <time>2015-07-31T09:46:16Z</time>
      </trkpt>
      <trkpt lat="42.11545" lon="9.14301">
        <ele>1343.76</ele>
        <time>2015-07-31T09:47:33Z</time>
      </trkpt>
      <trkpt lat="42.1156" lon="9.14285">
        <ele>1350.07</ele>
        <time>2015-07-31T09:47:47Z</time>
      </trkpt>
      <trkpt lat="42.11545" lon="9.14269">
        <ele>1336.36</ele>
        <time>2015-07-31T09:48:29Z</time>
      </trkpt>
      <trkpt lat="42.11528" lon="9.14263">
        <ele>1332.52</ele>
        <time>2015-07-31T09:48:56Z</time>
      </trkpt>
      <trkpt lat="42.1151" lon="9.1427">
        <ele>1336.49</ele>
        <time>2015-07-31T09:49:32Z</time>
      </trkpt>
      <trkpt lat="42.11492" lon="9.14278">
        <ele>1333.32</ele>
        <time>2015-07-31T09:49:50Z</time>
      </trkpt>
      <trkpt lat="42.11488" lon="9.14254">
        <ele>1322.37</ele>
        <time>2015-07-31T09:51:39Z</time>
      </trkpt>
      <trkpt lat="42.11496" lon="9.14232">
        <ele>1313.22</ele>
        <time>2015-07-31T09:52:06Z</time>
      </trkpt>
      <trkpt lat="42.11504" lon="9.1421">
        <ele>1358.67</ele>
        <time>2015-07-31T09:52:36Z</time>
      </trkpt>
      <trkpt lat="42.11511" lon="9.14187">
        <ele>1320.81</ele>
        <time>2015-07-31T09:53:04Z</time>
      </trkpt>
      <trkpt lat="42.11529" lon="9.1418">
        <ele>1323.45</ele>
        <time>2015-07-31T09:53:24Z</time>
      </trkpt>
      <trkpt lat="42.11535" lon="9.14156">
        <ele>1299.73</ele>
        <time>2015-07-31T09:54:25Z</time>
      </trkpt>
      <trkpt lat="42.1152" lon="9.14142">
        <ele>1297.87</ele>
        <time>2015-07-31T09:54:39Z</time>
      </trkpt>
      <trkpt lat="42.11502" lon="9.14135">
        <ele>1294.82</ele>
        <time>2015-07-31T09:55:01Z</time>
      </trkpt>
      <trkpt lat="42.11498" lon="9.14111">
        <ele>1280.26</ele>
        <time>2015-07-31T09:56:34Z</time>
      </trkpt>
      <trkpt lat="42.11481" lon="9.14102">
        <ele>1286.4</ele>
        <time>2015-07-31T09:57:02Z</time>
      </trkpt>
      <trkpt lat="42.11468" lon="9.14085">
        <ele>1266.13</ele>
        <time>2015-07-31T09:58:28Z</time>
      </trkpt>
      <trkpt lat="42.11465" lon="9.14061">
        <ele>1250.38</ele>
        <time>2015-07-31T09:59:56Z</time>
      </trkpt>
      <trkpt lat="42.11472" lon="9.14038">
        <ele>1245.29</ele>
        <time>2015-07-31T10:00:18Z</time>
      </trkpt>
      <trkpt lat="42.11478" lon="9.14015">
        <ele>1246.23</ele>
        <time>2015-07-31T10:00:41Z</time>
      </trkpt>
      <trkpt lat="42.11489" lon="9.13995">
        <ele>1245.3</ele>
        <time>2015-07-31T10:01:08Z</time>
      </trkpt>
      <trkpt lat="42.115" lon="9.13975">
        <ele>1239.84</ele>
        <time>2015-07-31T10:01:27Z</time>
      </trkpt>
      <trkpt lat="42.11517" lon="9.13965">
        <ele>1232.73</ele>
        <time>2015-07-31T10:02:02Z</time>
      </trkpt>
      <trkpt lat="42.11536" lon="9.13962">
        <ele>1230.46</ele>
        <time>2015-07-31T10:02:20Z</time>
      </trkpt>
      <trkpt lat="42.11554" lon="9.13958">
        <ele>1225.47</ele>
        <time>2015-07-31T10:02:52Z</time>
      </trkpt>
      <trkpt lat="42.11543" lon="9.13939">
        <ele>1228.42</ele>
        <time>2015-07-31T10:03:17Z</time>
      </trkpt>
      <trkpt lat="42.11524" lon="9.13929">
        <ele>1225.65</ele>
        <time>2015-07-31T10:03:30Z</time>
      </trkpt>
      <trkpt lat="42.11507" lon="9.13922">
        <ele>1233.4</ele>
        <time>2015-07-31T10:03:47Z</time>
      </trkpt>
      <trkpt lat="42.11489" lon="9.13928">
        <ele>1233.73</ele>
        <time>2015-07-31T10:04:03Z</time>
      </trkpt>
      <trkpt lat="42.11471" lon="9.13934">
        <ele>1231.05</ele>
        <time>2015-07-31T10:04:15Z</time>
      </trkpt>
      <trkpt lat="42.11454" lon="9.13944">
        <ele>1228</ele>
        <time>2015-07-31T10:04:28Z</time>
      </trkpt>
      <trkpt lat="42.11438" lon="9.13955">
        <ele>1228.22</ele>
        <time>2015-07-31T10:04:50Z</time>
      </trkpt>
      <trkpt lat="42.11419" lon="9.13955">
        <ele>1224.87</ele>
        <time>2015-07-31T10:05:06Z</time>
      </trkpt>
      <trkpt lat="42.114" lon="9.13955">
        <ele>1220.92</ele>
        <time>2015-07-31T10:05:22Z</time>
      </trkpt>
      <trkpt lat="42.11383" lon="9.13961">
        <ele>1222.86</ele>
        <time>2015-07-31T10:05:46Z</time>
      </trkpt>
      <trkpt lat="42.11365" lon="9.1395">
        <ele>1223.08</ele>
        <time>2015-07-31T10:06:02Z</time>
      </trkpt>
      <trkpt lat="42.11348" lon="9.13941">
        <ele>1222.83</ele>
        <time>2015-07-31T10:06:31Z</time>
      </trkpt>
      <trkpt lat="42.1134" lon="9.13918">
        <ele>1234.27</ele>
        <time>2015-07-31T10:06:46Z</time>
      </trkpt>
      <trkpt lat="42.11336" lon="9.13894">
        <ele>1230.01</ele>
        <time>2015-07-31T10:07:10Z</time>
      </trkpt>
      <trkpt lat="42.11322" lon="9.13876">
        <ele>1226.71</ele>
        <time>2015-07-31T10:07:24Z</time>
      </trkpt>
      <trkpt lat="42.11306" lon="9.13864">
        <ele>1225.95</ele>
        <time>2015-07-31T10:07:34Z</time>
      </trkpt>
      <trkpt lat="42.1129" lon="9.1385">
        <ele>1228.4</ele>
        <time>2015-07-31T10:07:50Z</time>
      </trkpt>
      <trkpt lat="42.11271" lon="9.13848">
        <ele>1225.09</ele>
        <time>2015-07-31T10:08:07Z</time>
      </trkpt>
      <trkpt lat="42.11253" lon="9.13842">
        <ele>1221.16</ele>
        <time>2015-07-31T10:08:24Z</time>
      </trkpt>
      <trkpt lat="42.11236" lon="9.13834">
        <ele>1221.29</ele>
        <time>2015-07-31T10:08:39Z</time>
      </trkpt>
      <trkpt lat="42.11218" lon="9.1382">
        <ele>1221.08</ele>
        <time>2015-07-31T10:09:03Z</time>
      </trkpt>
      <trkpt lat="42.11203" lon="9.13807">
        <ele>1217.73</ele>
        <time>2015-07-31T10:09:11Z</time>
      </trkpt>
      <trkpt lat="42.11193" lon="9.13786">
        <ele>1220.62</ele>
        <time>2015-07-31T10:09:33Z</time>
      </trkpt>
      <trkpt lat="42.11184" lon="9.13764">
        <ele>1216.36</ele>
        <time>2015-07-31T10:09:52Z</time>
      </trkpt>
      <trkpt lat="42.112" lon="9.13754">
        <ele>1206.31</ele>
        <time>2015-07-31T10:10:42Z</time>
      </trkpt>
      <trkpt lat="42.11218" lon="9.13756">
        <ele>1208.97</ele>
        <time>2015-07-31T10:11:07Z</time>
      </trkpt>
      <trkpt lat="42.11237" lon="9.13757">
        <ele>1213.38</ele>
        <time>2015-07-31T10:11:29Z</time>
      </trkpt>
      <trkpt lat="42.11255" lon="9.13755">
        <ele>1209.85</ele>
        <time>2015-07-31T10:11:40Z</time>
      </trkpt>
      <trkpt lat="42.11273" lon="9.13752">
        <ele>1203.62</ele>
        <time>2015-07-31T10:11:58Z</time>
      </trkpt>
      <trkpt lat="42.11291" lon="9.13743">
        <ele>1198.51</ele>
        <time>2015-07-31T10:14:01Z</time>
      </trkpt>
      <trkpt lat="42.11308" lon="9.13735">
        <ele>1198.29</ele>
        <time>2015-07-31T10:14:29Z</time>
      </trkpt>
      <trkpt lat="42.11326" lon="9.13727">
        <ele>1192.88</ele>
        <time>2015-07-31T10:14:37Z</time>
      </trkpt>
      <trkpt lat="42.11343" lon="9.13722">
        <ele>1198.56</ele>
        <time>2015-07-31T10:14:55Z</time>
      </trkpt>
      <trkpt lat="42.11362" lon="9.13721">
        <ele>1187.09</ele>
        <time>2015-07-31T10:15:45Z</time>
      </trkpt>
      <trkpt lat="42.1138" lon="9.13714">
        <ele>1180.1</ele>
        <time>2015-07-31T10:15:56Z</time>
      </trkpt>
      <trkpt lat="42.11399" lon="9.13711">
        <ele>1178.5</ele>
        <time>2015-07-31T10:16:09Z</time>
      </trkpt>
      <trkpt lat="42.11417" lon="9.13702">
        <ele>1171.3</ele>
        <time>2015-07-31T10:16:20Z</time>
      </trkpt>
      <trkpt lat="42.11404" lon="9.13686">
        <ele>1186.21</ele>
        <time>2015-07-31T10:16:47Z</time>
      </trkpt>
      <trkpt lat="42.11387" lon="9.13679">
        <ele>1185.48</ele>
        <time>2015-07-31T10:17:04Z</time>
      </trkpt>
      <trkpt lat="42.11368" lon="9.13677">
        <ele>1196.07</ele>
        <time>2015-07-31T10:17:19Z</time>
      </trkpt>
      <trkpt lat="42.11349" lon="9.1368">
        <ele>1186.71</ele>
        <time>2015-07-31T10:17:31Z</time>
      </trkpt>
      <trkpt lat="42.11331" lon="9.13685">
        <ele>1197.73</ele>
        <time>2015-07-31T10:17:47Z</time>
      </trkpt>
      <trkpt lat="42.11313" lon="9.13691">
        <ele>1194.41</ele>
        <time>2015-07-31T10:18:06Z</time>
      </trkpt>
      <trkpt lat="42.11294" lon="9.13696">
        <ele>1189.1</ele>
        <time>2015-07-31T10:18:21Z</time>
      </trkpt>
      <trkpt lat="42.11276" lon="9.13696">
        <ele>1185.27</ele>
        <time>2015-07-31T10:18:36Z</time>
      </trkpt>
      <trkpt lat="42.11259" lon="9.13687">
        <ele>1186.31</ele>
        <time>2015-07-31T10:18:55Z</time>
      </trkpt>
      <trkpt lat="42.11243" lon="9.13676">
        <ele>1173.25</ele>
        <time>2015-07-31T10:21:35Z</time>
      </trkpt>
      <trkpt lat="42.11248" lon="9.13652">
        <ele>1182.23</ele>
        <time>2015-07-31T11:02:52Z</time>
      </trkpt>
      <trkpt lat="42.11262" lon="9.13636">
        <ele>1175.44</ele>
        <time>2015-07-31T11:03:20Z</time>
      </trkpt>
      <trkpt lat="42.11246" lon="9.13648">
        <ele>1163.63</ele>
        <time>2015-07-31T11:04:16Z</time>
      </trkpt>
      <trkpt lat="42.11232" lon="9.13665">
        <ele>1166.39</ele>
        <time>2015-07-31T11:04:30Z</time>
      </trkpt>
      <trkpt lat="42.11217" lon="9.13692">
        <ele>1145.97</ele>
        <time>2015-07-31T11:44:03Z</time>
      </trkpt>
      <trkpt lat="42.11226" lon="9.1367">
        <ele>1161.81</ele>
        <time>2015-07-31T11:45:54Z</time>
      </trkpt>
      <trkpt lat="42.11231" lon="9.13646">
        <ele>1165.06</ele>
        <time>2015-07-31T11:47:20Z</time>
      </trkpt>
      <trkpt lat="42.11236" lon="9.13622">
        <ele>1183.29</ele>
        <time>2015-07-31T11:47:39Z</time>
      </trkpt>
      <trkpt lat="42.1124" lon="9.13599">
        <ele>1180.15</ele>
        <time>2015-07-31T11:48:00Z</time>
      </trkpt>
      <trkpt lat="42.1125" lon="9.13578">
        <ele>1173.46</ele>
        <time>2015-07-31T11:48:21Z</time>
      </trkpt>
      <trkpt lat="42.1126" lon="9.13557">
        <ele>1174.57</ele>
        <time>2015-07-31T11:48:45Z</time>
      </trkpt>
      <trkpt lat="42.11275" lon="9.13542">
        <ele>1179.06</ele>
        <time>2015-07-31T11:49:11Z</time>
      </trkpt>
      <trkpt lat="42.1129" lon="9.13527">
        <ele>1174.54</ele>
        <time>2015-07-31T11:49:30Z</time>
      </trkpt>
      <trkpt lat="42.11304" lon="9.13512">
        <ele>1171.12</ele>
        <time>2015-07-31T11:49:47Z</time>
      </trkpt>
      <trkpt lat="42.11312" lon="9.13491">
        <ele>1177.68</ele>
        <time>2015-07-31T11:50:07Z</time>
      </trkpt>
      <trkpt lat="42.11319" lon="9.13468">
        <ele>1176.67</ele>
        <time>2015-07-31T11:50:28Z</time>
      </trkpt>
      <trkpt lat="42.11335" lon="9.13455">
        <ele>1179.76</ele>
        <time>2015-07-31T11:50:46Z</time>
      </trkpt>
      <trkpt lat="42.11349" lon="9.13438">
        <ele>1185.14</ele>
        <time>2015-07-31T11:51:09Z</time>
      </trkpt>
      <trkpt lat="42.11365" lon="9.13425">
        <ele>1188.42</ele>
        <time>2015-07-31T11:51:29Z</time>
      </trkpt>
      <trkpt lat="42.1138" lon="9.13412">
        <ele>1186.17</ele>
        <time>2015-07-31T11:51:47Z</time>
      </trkpt>
      <trkpt lat="42.11395" lon="9.13397">
        <ele>1183.6</ele>
        <time>2015-07-31T11:52:02Z</time>
      </trkpt>
      <trkpt lat="42.11401" lon="9.13374">
        <ele>1175.44</ele>
        <time>2015-07-31T11:52:20Z</time>
      </trkpt>
      <trkpt lat="42.1141" lon="9.13352">
        <ele>1177.96</ele>
        <time>2015-07-31T11:52:34Z</time>
      </trkpt>
      <trkpt lat="42.11422" lon="9.13334">
        <ele>1183.67</ele>
        <time>2015-07-31T11:52:50Z</time>
      </trkpt>
      <trkpt lat="42.11419" lon="9.13309">
        <ele>1182.23</ele>
        <time>2015-07-31T11:53:09Z</time>
      </trkpt>
      <trkpt lat="42.11426" lon="9.13287">
        <ele>1190.6</ele>
        <time>2015-07-31T11:53:29Z</time>
      </trkpt>
      <trkpt lat="42.11443" lon="9.13275">
        <ele>1191.06</ele>
        <time>2015-07-31T11:53:45Z</time>
      </trkpt>
      <trkpt lat="42.11455" lon="9.13257">
        <ele>1186.3</ele>
        <time>2015-07-31T11:53:58Z</time>
      </trkpt>
      <trkpt lat="42.11471" lon="9.13245">
        <ele>1193.8</ele>
        <time>2015-07-31T11:54:19Z</time>
      </trkpt>
      <trkpt lat="42.11486" lon="9.13231">
        <ele>1186.76</ele>
        <time>2015-07-31T11:54:34Z</time>
      </trkpt>
      <trkpt lat="42.11501" lon="9.13216">
        <ele>1185.78</ele>
        <time>2015-07-31T11:54:50Z</time>
      </trkpt>
      <trkpt lat="42.11517" lon="9.13204">
        <ele>1184.43</ele>
        <time>2015-07-31T11:55:08Z</time>
      </trkpt>
      <trkpt lat="42.11531" lon="9.13188">
        <ele>1185.41</ele>
        <time>2015-07-31T11:55:24Z</time>
      </trkpt>
      <trkpt lat="42.11538" lon="9.13166">
        <ele>1190.22</ele>
        <time>2015-07-31T11:55:40Z</time>
      </trkpt>
      <trkpt lat="42.1154" lon="9.13141">
        <ele>1187.66</ele>
        <time>2015-07-31T11:55:56Z</time>
      </trkpt>
      <trkpt lat="42.1155" lon="9.13121">
        <ele>1185.67</ele>
        <time>2015-07-31T11:56:10Z</time>
      </trkpt>
      <trkpt lat="42.11566" lon="9.13106">
        <ele>1188.35</ele>
        <time>2015-07-31T11:56:31Z</time>
      </trkpt>
      <trkpt lat="42.11584" lon="9.13101">
        <ele>1188.82</ele>
        <time>2015-07-31T11:56:45Z</time>
      </trkpt>
      <trkpt lat="42.11603" lon="9.13098">
        <ele>1191.32</ele>
        <time>2015-07-31T11:57:02Z</time>
      </trkpt>
      <trkpt lat="42.11621" lon="9.13094">
        <ele>1185.53</ele>
        <time>2015-07-31T11:57:14Z</time>
      </trkpt>
      <trkpt lat="42.11637" lon="9.13081">
        <ele>1179.39</ele>
        <time>2015-07-31T11:57:29Z</time>
      </trkpt>
      <trkpt lat="42.11648" lon="9.13061">
        <ele>1179.67</ele>
        <time>2015-07-31T11:57:44Z</time>
      </trkpt>
      <trkpt lat="42.11661" lon="9.13044">
        <ele>1177.2</ele>
        <time>2015-07-31T11:57:58Z</time>
      </trkpt>
      <trkpt lat="42.11677" lon="9.13029">
        <ele>1177.93</ele>
        <time>2015-07-31T11:58:11Z</time>
      </trkpt>
      <trkpt lat="42.1169" lon="9.13013">
        <ele>1179.17</ele>
        <time>2015-07-31T11:58:27Z</time>
      </trkpt>
      <trkpt lat="42.11708" lon="9.13004">
        <ele>1177.98</ele>
        <time>2015-07-31T11:58:46Z</time>
      </trkpt>
      <trkpt lat="42.11726" lon="9.12996">
        <ele>1174.68</ele>
        <time>2015-07-31T11:59:01Z</time>
      </trkpt>
      <trkpt lat="42.11742" lon="9.12983">
        <ele>1172.87</ele>
        <time>2015-07-31T11:59:18Z</time>
      </trkpt>
      <trkpt lat="42.1176" lon="9.12974">
        <ele>1169.16</ele>
        <time>2015-07-31T11:59:36Z</time>
      </trkpt>
      <trkpt lat="42.11778" lon="9.12964">
        <ele>1166.55</ele>
        <time>2015-07-31T11:59:48Z</time>
      </trkpt>
      <trkpt lat="42.11796" lon="9.12959">
        <ele>1165.88</ele>
        <time>2015-07-31T12:00:28Z</time>
      </trkpt>
      <trkpt lat="42.11814" lon="9.12962">
        <ele>1165.7</ele>
        <time>2015-07-31T12:01:17Z</time>
      </trkpt>
      <trkpt lat="42.11815" lon="9.12937">
        <ele>1153.01</ele>
        <time>2015-07-31T12:01:46Z</time>
      </trkpt>
      <trkpt lat="42.11813" lon="9.12913">
        <ele>1150.8</ele>
        <time>2015-07-31T12:02:05Z</time>
      </trkpt>
      <trkpt lat="42.11809" lon="9.12889">
        <ele>1148.27</ele>
        <time>2015-07-31T12:02:22Z</time>
      </trkpt>
      <trkpt lat="42.11802" lon="9.12866">
        <ele>1155.9</ele>
        <time>2015-07-31T12:02:44Z</time>
      </trkpt>
      <trkpt lat="42.11794" lon="9.12843">
        <ele>1154.44</ele>
        <time>2015-07-31T12:03:08Z</time>
      </trkpt>
      <trkpt lat="42.11787" lon="9.1282">
        <ele>1158.15</ele>
        <time>2015-07-31T12:03:25Z</time>
      </trkpt>
      <trkpt lat="42.1178" lon="9.12797">
        <ele>1156.35</ele>
        <time>2015-07-31T12:03:45Z</time>
      </trkpt>
      <trkpt lat="42.11769" lon="9.12777">
        <ele>1143.96</ele>
        <time>2015-07-31T12:04:18Z</time>
      </trkpt>
      <trkpt lat="42.11768" lon="9.12751">
        <ele>1141.63</ele>
        <time>2015-07-31T12:04:29Z</time>
      </trkpt>
      <trkpt lat="42.1177" lon="9.12726">
        <ele>1137.66</ele>
        <time>2015-07-31T12:04:39Z</time>
      </trkpt>
      <trkpt lat="42.11767" lon="9.12702">
        <ele>1138.04</ele>
        <time>2015-07-31T12:04:54Z</time>
      </trkpt>
      <trkpt lat="42.11759" lon="9.12679">
        <ele>1135.79</ele>
        <time>2015-07-31T12:05:09Z</time>
      </trkpt>
      <trkpt lat="42.11743" lon="9.12666">
        <ele>1143.44</ele>
        <time>2015-07-31T12:05:31Z</time>
      </trkpt>
      <trkpt lat="42.11728" lon="9.12651">
        <ele>1143.63</ele>
        <time>2015-07-31T12:05:48Z</time>
      </trkpt>
      <trkpt lat="42.11713" lon="9.12636">
        <ele>1151.7</ele>
        <time>2015-07-31T12:06:03Z</time>
      </trkpt>
      <trkpt lat="42.11699" lon="9.12621">
        <ele>1155.02</ele>
        <time>2015-07-31T12:06:26Z</time>
      </trkpt>
      <trkpt lat="42.11683" lon="9.12606">
        <ele>1153.79</ele>
        <time>2015-07-31T12:06:44Z</time>
      </trkpt>
      <trkpt lat="42.11667" lon="9.12594">
        <ele>1154.29</ele>
        <time>2015-07-31T12:06:53Z</time>
      </trkpt>
      <trkpt lat="42.11649" lon="9.12589">
        <ele>1158.97</ele>
        <time>2015-07-31T12:07:47Z</time>
      </trkpt>
      <trkpt lat="42.11633" lon="9.12576">
        <ele>1158.83</ele>
        <time>2015-07-31T12:07:58Z</time>
      </trkpt>
      <trkpt lat="42.11618" lon="9.12559">
        <ele>1161.14</ele>
        <time>2015-07-31T12:08:12Z</time>
      </trkpt>
      <trkpt lat="42.11603" lon="9.12544">
        <ele>1159.39</ele>
        <time>2015-07-31T12:08:25Z</time>
      </trkpt>
      <trkpt lat="42.11598" lon="9.1252">
        <ele>1166.79</ele>
        <time>2015-07-31T12:08:38Z</time>
      </trkpt>
      <trkpt lat="42.11592" lon="9.12497">
        <ele>1171.97</ele>
        <time>2015-07-31T12:08:53Z</time>
      </trkpt>
      <trkpt lat="42.11578" lon="9.12479">
        <ele>1167.55</ele>
        <time>2015-07-31T12:09:08Z</time>
      </trkpt>
      <trkpt lat="42.11565" lon="9.12461">
        <ele>1159.86</ele>
        <time>2015-07-31T12:09:25Z</time>
      </trkpt>
      <trkpt lat="42.11556" lon="9.12439">
        <ele>1155.59</ele>
        <time>2015-07-31T12:09:39Z</time>
      </trkpt>
      <trkpt lat="42.11543" lon="9.12422">
        <ele>1159.26</ele>
        <time>2015-07-31T12:09:52Z</time>
      </trkpt>
      <trkpt lat="42.11526" lon="9.12411">
        <ele>1154.66</ele>
        <time>2015-07-31T12:10:06Z</time>
      </trkpt>
      <trkpt lat="42.11512" lon="9.12394">
        <ele>1161.02</ele>
        <time>2015-07-31T12:10:24Z</time>
      </trkpt>
      <trkpt lat="42.115" lon="9.12374">
        <ele>1155.05</ele>
        <time>2015-07-31T12:10:40Z</time>
      </trkpt>
      <trkpt lat="42.11486" lon="9.12359">
        <ele>1151.3</ele>
        <time>2015-07-31T12:10:53Z</time>
      </trkpt>
      <trkpt lat="42.1147" lon="9.12347">
        <ele>1148.85</ele>
        <time>2015-07-31T12:11:07Z</time>
      </trkpt>
      <trkpt lat="42.1146" lon="9.12326">
        <ele>1154.03</ele>
        <time>2015-07-31T12:11:24Z</time>
      </trkpt>
      <trkpt lat="42.11452" lon="9.12303">
        <ele>1159.63</ele>
        <time>2015-07-31T12:11:38Z</time>
      </trkpt>
      <trkpt lat="42.11453" lon="9.12278">
        <ele>1162.3</ele>
        <time>2015-07-31T12:11:53Z</time>
      </trkpt>
      <trkpt lat="42.11459" lon="9.12255">
        <ele>1159.66</ele>
        <time>2015-07-31T12:12:09Z</time>
      </trkpt>
      <trkpt lat="42.11451" lon="9.12233">
        <ele>1147.69</ele>
        <time>2015-07-31T12:12:34Z</time>
      </trkpt>
      <trkpt lat="42.11438" lon="9.12216">
        <ele>1154.88</ele>
        <time>2015-07-31T12:12:54Z</time>
      </trkpt>
      <trkpt lat="42.11421" lon="9.12204">
        <ele>1154.51</ele>
        <time>2015-07-31T12:13:13Z</time>
      </trkpt>
      <trkpt lat="42.11408" lon="9.12188">
        <ele>1152.23</ele>
        <time>2015-07-31T12:13:31Z</time>
      </trkpt>
      <trkpt lat="42.11391" lon="9.12176">
        <ele>1152.44</ele>
        <time>2015-07-31T12:13:49Z</time>
      </trkpt>
      <trkpt lat="42.1138" lon="9.12157">
        <ele>1154.33</ele>
        <time>2015-07-31T12:14:02Z</time>
      </trkpt>
      <trkpt lat="42.1137" lon="9.12135">
        <ele>1154.03</ele>
        <time>2015-07-31T12:14:16Z</time>
      </trkpt>
      <trkpt lat="42.11361" lon="9.12113">
        <ele>1150.32</ele>
        <time>2015-07-31T12:14:30Z</time>
      </trkpt>
      <trkpt lat="42.11356" lon="9.1209">
        <ele>1152.62</ele>
        <time>2015-07-31T12:14:43Z</time>
      </trkpt>
      <trkpt lat="42.11369" lon="9.12071">
        <ele>1151.82</ele>
        <time>2015-07-31T12:14:54Z</time>
      </trkpt>
      <trkpt lat="42.11374" lon="9.12048">
        <ele>1145.89</ele>
        <time>2015-07-31T12:15:20Z</time>
      </trkpt>
      <trkpt lat="42.11367" lon="9.12024">
        <ele>1154.81</ele>
        <time>2015-07-31T12:15:35Z</time>
      </trkpt>
      <trkpt lat="42.11376" lon="9.12001">
        <ele>1157.47</ele>
        <time>2015-07-31T12:15:51Z</time>
      </trkpt>
      <trkpt lat="42.11379" lon="9.11977">
        <ele>1158.65</ele>
        <time>2015-07-31T12:16:27Z</time>
      </trkpt>
      <trkpt lat="42.11371" lon="9.11954">
        <ele>1160.3</ele>
        <time>2015-07-31T12:16:45Z</time>
      </trkpt>
      <trkpt lat="42.11365" lon="9.1193">
        <ele>1154.96</ele>
        <time>2015-07-31T12:17:26Z</time>
      </trkpt>
      <trkpt lat="42.11366" lon="9.11906">
        <ele>1150.4</ele>
        <time>2015-07-31T12:17:50Z</time>
      </trkpt>
    </trkseg>
  </trk>
</gpx>